PWSweather.com
Personal Weather Stations
Station Observations
KC4YGB
E3801 Rock Cave -, French Creek, WV 26218

E3801 Rock Cave -French Creek, WV 26218

Lat: 38.842212, Lon: -80.272288

Elevation: 1900

Station Type: Davis Vantage Vue

https://www.facebook.com/OhioValleyWeatherPlus

Latest ConditionsUpdated 7:00:37 PM EDT Friday, Jul 25, 2014
Currently Today's Max Today's Min Today's Average
Temperature 74.3°F23.5°C 76.7°F24.8°C 58.5°F14.7°C 66.3°F19.1°C
Dew Point 60.4°F15.8°C 63.6°F17.6°C 54.7°F12.6°C 59.6°F15.3°C
Winds 2.0 mph WSW3.2 kmh WSW 6.0 mph SW9.7 kmh SW - 1.5 mph 2.4 kmh
Wind Gusts 5.0 mph8.0 kmh 13.0 mph20.9 kmh - -
Humidity 62% 100% 55% 82%
Pressure 30.07 in1018.3 mb 30.14 in1020.7 mb 30.04 in1017.3 mb -
Precipitation - 5.70 in144.8 mm - -
Hour Temp Dew Point Humidity Winds Wind Gusts Pressure Precip Precip Rate Daily Precip Total
07:00 PM 74.3°F23.5°C 60.4°F15.8°C 62% 2.0 mph WSW3.2 kmh WSW 5.0 mph8.0 kmh 30.07 in1018.3 mb 0.00 in0.0 mm 0.00 in/hr0.0 mm/hr 5.70 in144.8 mm
06:59 PM 74.3°F23.5°C 61.3°F16.3°C 64% 2.0 mph WSW3.2 kmh WSW 5.0 mph8.0 kmh 30.07 in1018.3 mb 0.00 in0.0 mm 0.00 in/hr0.0 mm/hr 5.70 in144.8 mm
06:58 PM 74.3°F23.5°C 60.9°F16.1°C 63% 2.0 mph WSW3.2 kmh WSW 5.0 mph8.0 kmh 30.07 in1018.3 mb 0.00 in0.0 mm 0.00 in/hr0.0 mm/hr 5.70 in144.8 mm
06:57 PM 74.4°F23.6°C 61.0°F16.1°C 63% 2.0 mph WSW3.2 kmh WSW 5.0 mph8.0 kmh 30.06 in1017.9 mb 0.00 in0.0 mm 0.00 in/hr0.0 mm/hr 5.70 in144.8 mm
06:56 PM 74.5°F23.6°C 60.2°F15.7°C 61% 2.0 mph SW3.2 kmh SW 5.0 mph8.0 kmh 30.06 in1017.9 mb 0.00 in0.0 mm 0.00 in/hr0.0 mm/hr 5.70 in144.8 mm
06:55 PM 74.6°F23.7°C 59.8°F15.4°C 60% 2.0 mph SW3.2 kmh SW 5.0 mph8.0 kmh 30.07 in1018.3 mb 0.00 in0.0 mm 0.00 in/hr0.0 mm/hr 5.70 in144.8 mm
06:54 PM 74.7°F23.7°C 61.3°F16.3°C 63% 2.0 mph SW3.2 kmh SW 5.0 mph8.0 kmh 30.07 in1018.3 mb 0.00 in0.0 mm 0.00 in/hr0.0 mm/hr 5.70 in144.8 mm
06:53 PM 74.8°F23.8°C 60.4°F15.8°C 61% 2.0 mph SW3.2 kmh SW 5.0 mph8.0 kmh 30.06 in1017.9 mb 0.00 in0.0 mm 0.00 in/hr0.0 mm/hr 5.70 in144.8 mm
06:52 PM 74.9°F23.8°C 61.9°F16.6°C 64% 2.0 mph SW3.2 kmh SW 5.0 mph8.0 kmh 30.07 in1018.3 mb 0.00 in0.0 mm 0.00 in/hr0.0 mm/hr 5.70 in144.8 mm
06:51 PM 75.0°F23.9°C 60.6°F15.9°C 61% 2.0 mph SW3.2 kmh SW 5.0 mph8.0 kmh 30.07 in1018.3 mb 0.00 in0.0 mm 0.00 in/hr0.0 mm/hr 5.70 in144.8 mm
06:50 PM 75.1°F23.9°C 61.6°F16.4°C 63% 2.0 mph SW3.2 kmh SW 5.0 mph8.0 kmh 30.06 in1017.9 mb 0.00 in0.0 mm 0.00 in/hr0.0 mm/hr 5.70 in144.8 mm
06:49 PM 75.2°F24.0°C 61.7°F16.5°C 63% 2.0 mph SW3.2 kmh SW 5.0 mph8.0 kmh 30.06 in1017.9 mb 0.00 in0.0 mm 0.00 in/hr0.0 mm/hr 5.70 in144.8 mm
06:48 PM 75.3°F24.1°C 61.4°F16.3°C 62% 2.0 mph SW3.2 kmh SW 5.0 mph8.0 kmh 30.07 in1018.3 mb 0.00 in0.0 mm 0.00 in/hr0.0 mm/hr 5.70 in144.8 mm
06:47 PM 75.3°F24.1°C 61.8°F16.6°C 63% 2.0 mph SW3.2 kmh SW 5.0 mph8.0 kmh 30.07 in1018.3 mb 0.00 in0.0 mm 0.00 in/hr0.0 mm/hr 5.70 in144.8 mm
06:46 PM 75.3°F24.1°C 61.4°F16.3°C 62% 3.0 mph SW4.8 kmh SW 6.0 mph9.7 kmh 30.07 in1018.3 mb 0.00 in0.0 mm 0.00 in/hr0.0 mm/hr 5.70 in144.8 mm
06:45 PM 75.2°F24.0°C 60.8°F16.0°C 61% 3.0 mph SW4.8 kmh SW 6.0 mph9.7 kmh 30.07 in1018.3 mb 0.00 in0.0 mm 0.00 in/hr0.0 mm/hr 5.70 in144.8 mm
06:44 PM 75.2°F24.0°C 62.2°F16.8°C 64% 3.0 mph SW4.8 kmh SW 6.0 mph9.7 kmh 30.07 in1018.3 mb 0.00 in0.0 mm 0.00 in/hr0.0 mm/hr 5.70 in144.8 mm
06:43 PM 75.2°F24.0°C 61.3°F16.3°C 62% 3.0 mph SW4.8 kmh SW 7.0 mph11.3 kmh 30.07 in1018.3 mb 0.00 in0.0 mm 0.00 in/hr0.0 mm/hr 5.70 in144.8 mm
06:42 PM 75.2°F24.0°C 61.7°F16.5°C 63% 3.0 mph SW4.8 kmh SW 7.0 mph11.3 kmh 30.07 in1018.3 mb 0.00 in0.0 mm 0.00 in/hr0.0 mm/hr 5.70 in144.8 mm
06:41 PM 75.1°F23.9°C 61.6°F16.4°C 63% 3.0 mph SW4.8 kmh SW 7.0 mph11.3 kmh 30.07 in1018.3 mb 0.00 in0.0 mm 0.00 in/hr0.0 mm/hr 5.70 in144.8 mm
06:40 PM 75.0°F23.9°C 62.4°F16.9°C 65% 3.0 mph SW4.8 kmh SW 7.0 mph11.3 kmh 30.07 in1018.3 mb 0.00 in0.0 mm 0.00 in/hr0.0 mm/hr 5.70 in144.8 mm
06:39 PM 74.9°F23.8°C 62.8°F17.1°C 66% 3.0 mph SW4.8 kmh SW 7.0 mph11.3 kmh 30.07 in1018.3 mb 0.00 in0.0 mm 0.00 in/hr0.0 mm/hr 5.70 in144.8 mm
06:38 PM 74.8°F23.8°C 62.2°F16.8°C 65% 2.0 mph SW3.2 kmh SW 7.0 mph11.3 kmh 30.07 in1018.3 mb 0.00 in0.0 mm 0.00 in/hr0.0 mm/hr 5.70 in144.8 mm
06:37 PM 74.8°F23.8°C 61.4°F16.3°C 63% 2.0 mph SW3.2 kmh SW 7.0 mph11.3 kmh 30.07 in1018.3 mb 0.00 in0.0 mm 0.00 in/hr0.0 mm/hr 5.70 in144.8 mm
06:36 PM 74.8°F23.8°C 60.4°F15.8°C 61% 2.0 mph SW3.2 kmh SW 7.0 mph11.3 kmh 30.07 in1018.3 mb 0.00 in0.0 mm 0.00 in/hr0.0 mm/hr 5.70 in144.8 mm
06:35 PM 74.9°F23.8°C 61.5°F16.4°C 63% 2.0 mph SW3.2 kmh SW 7.0 mph11.3 kmh 30.07 in1018.3 mb 0.00 in0.0 mm 0.00 in/hr0.0 mm/hr 5.70 in144.8 mm
06:34 PM 75.0°F23.9°C 60.6°F15.9°C 61% 2.0 mph SW3.2 kmh SW 7.0 mph11.3 kmh 30.07 in1018.3 mb 0.00 in0.0 mm 0.00 in/hr0.0 mm/hr 5.70 in144.8 mm
06:33 PM 75.1°F23.9°C 61.2°F16.2°C 62% 2.0 mph WSW3.2 kmh WSW 6.0 mph9.7 kmh 30.07 in1018.3 mb 0.00 in0.0 mm 0.00 in/hr0.0 mm/hr 5.70 in144.8 mm
06:32 PM 75.1°F23.9°C 60.7°F15.9°C 61% 2.0 mph WSW3.2 kmh WSW 5.0 mph8.0 kmh 30.07 in1018.3 mb 0.00 in0.0 mm 0.00 in/hr0.0 mm/hr 5.70 in144.8 mm
06:31 PM 75.2°F24.0°C 60.8°F16.0°C 61% 2.0 mph WSW3.2 kmh WSW 5.0 mph8.0 kmh 30.07 in1018.3 mb 0.00 in0.0 mm 0.00 in/hr0.0 mm/hr 5.70 in144.8 mm
06:30 PM 75.2°F24.0°C 60.8°F16.0°C 61% 2.0 mph WSW3.2 kmh WSW 5.0 mph8.0 kmh 30.07 in1018.3 mb 0.00 in0.0 mm 0.00 in/hr0.0 mm/hr 5.70 in144.8 mm
06:29 PM 75.1°F23.9°C 62.5°F16.9°C 65% 2.0 mph WSW3.2 kmh WSW 5.0 mph8.0 kmh 30.07 in1018.3 mb 0.00 in0.0 mm 0.00 in/hr0.0 mm/hr 5.70 in144.8 mm
06:28 PM 75.0°F23.9°C 61.1°F16.2°C 62% 2.0 mph WSW3.2 kmh WSW 5.0 mph8.0 kmh 30.07 in1018.3 mb 0.00 in0.0 mm 0.00 in/hr0.0 mm/hr 5.70 in144.8 mm
06:27 PM 74.9°F23.8°C 61.5°F16.4°C 63% 2.0 mph WSW3.2 kmh WSW 5.0 mph8.0 kmh 30.07 in1018.3 mb 0.00 in0.0 mm 0.00 in/hr0.0 mm/hr 5.70 in144.8 mm
06:26 PM 74.8°F23.8°C 60.0°F15.6°C 60% 2.0 mph WSW3.2 kmh WSW 5.0 mph8.0 kmh 30.07 in1018.3 mb 0.00 in0.0 mm 0.00 in/hr0.0 mm/hr 5.70 in144.8 mm
06:25 PM 74.8°F23.8°C 60.0°F15.6°C 60% 2.0 mph WSW3.2 kmh WSW 5.0 mph8.0 kmh 30.07 in1018.3 mb 0.00 in0.0 mm 0.00 in/hr0.0 mm/hr 5.70 in144.8 mm
06:24 PM 74.9°F23.8°C 60.1°F15.6°C 60% 2.0 mph WSW3.2 kmh WSW 5.0 mph8.0 kmh 30.07 in1018.3 mb 0.00 in0.0 mm 0.00 in/hr0.0 mm/hr 5.70 in144.8 mm
06:23 PM 75.0°F23.9°C 60.6°F15.9°C 61% 2.0 mph WSW3.2 kmh WSW 6.0 mph9.7 kmh 30.07 in1018.3 mb 0.00 in0.0 mm 0.00 in/hr0.0 mm/hr 5.70 in144.8 mm
06:22 PM 75.0°F23.9°C 61.5°F16.4°C 63% 2.0 mph WSW3.2 kmh WSW 6.0 mph9.7 kmh 30.07 in1018.3 mb 0.00 in0.0 mm 0.00 in/hr0.0 mm/hr 5.70 in144.8 mm
06:21 PM 75.0°F23.9°C 60.6°F15.9°C 61% 2.0 mph WSW3.2 kmh WSW 6.0 mph9.7 kmh 30.07 in1018.3 mb 0.00 in0.0 mm 0.00 in/hr0.0 mm/hr 5.70 in144.8 mm
06:20 PM 74.9°F23.8°C 60.5°F15.8°C 61% 2.0 mph WSW3.2 kmh WSW 6.0 mph9.7 kmh 30.06 in1017.9 mb 0.00 in0.0 mm 0.00 in/hr0.0 mm/hr 5.70 in144.8 mm
06:19 PM 74.9°F23.8°C 61.5°F16.4°C 63% 2.0 mph WSW3.2 kmh WSW 6.0 mph9.7 kmh 30.06 in1017.9 mb 0.00 in0.0 mm 0.00 in/hr0.0 mm/hr 5.70 in144.8 mm
06:18 PM 74.8°F23.8°C 61.8°F16.6°C 64% 2.0 mph WSW3.2 kmh WSW 6.0 mph9.7 kmh 30.07 in1018.3 mb 0.00 in0.0 mm 0.00 in/hr0.0 mm/hr 5.70 in144.8 mm
06:17 PM 74.8°F23.8°C 60.9°F16.1°C 62% 2.0 mph WSW3.2 kmh WSW 6.0 mph9.7 kmh 30.07 in1018.3 mb 0.00 in0.0 mm 0.00 in/hr0.0 mm/hr 5.70 in144.8 mm
06:16 PM 74.8°F23.8°C 61.4°F16.3°C 63% 2.0 mph WSW3.2 kmh WSW 6.0 mph9.7 kmh 30.06 in1017.9 mb 0.00 in0.0 mm 0.00 in/hr0.0 mm/hr 5.70 in144.8 mm
06:15 PM 74.9°F23.8°C 60.5°F15.8°C 61% 2.0 mph WSW3.2 kmh WSW 6.0 mph9.7 kmh 30.07 in1018.3 mb 0.00 in0.0 mm 0.00 in/hr0.0 mm/hr 5.70 in144.8 mm
06:14 PM 75.0°F23.9°C 61.1°F16.2°C 62% 3.0 mph WSW4.8 kmh WSW 6.0 mph9.7 kmh 30.06 in1017.9 mb 0.00 in0.0 mm 0.00 in/hr0.0 mm/hr 5.70 in144.8 mm
06:13 PM 75.1°F23.9°C 61.6°F16.4°C 63% 3.0 mph SW4.8 kmh SW 6.0 mph9.7 kmh 30.06 in1017.9 mb 0.00 in0.0 mm 0.00 in/hr0.0 mm/hr 5.70 in144.8 mm
06:12 PM 75.1°F23.9°C 61.2°F16.2°C 62% 3.0 mph SW4.8 kmh SW 6.0 mph9.7 kmh 30.06 in1017.9 mb 0.00 in0.0 mm 0.00 in/hr0.0 mm/hr 5.70 in144.8 mm
06:11 PM 75.1°F23.9°C 61.2°F16.2°C 62% 3.0 mph SW4.8 kmh SW 6.0 mph9.7 kmh 30.06 in1017.9 mb 0.00 in0.0 mm 0.00 in/hr0.0 mm/hr 5.70 in144.8 mm
06:10 PM 74.9°F23.8°C 61.9°F16.6°C 64% 3.0 mph SW4.8 kmh SW 5.0 mph8.0 kmh 30.06 in1017.9 mb 0.00 in0.0 mm 0.00 in/hr0.0 mm/hr 5.70 in144.8 mm
06:09 PM 74.7°F23.7°C 62.1°F16.7°C 65% 4.0 mph SW6.4 kmh SW 6.0 mph9.7 kmh 30.06 in1017.9 mb 0.00 in0.0 mm 0.00 in/hr0.0 mm/hr 5.70 in144.8 mm
06:08 PM 74.5°F23.6°C 61.5°F16.4°C 64% 4.0 mph SW6.4 kmh SW 6.0 mph9.7 kmh 30.06 in1017.9 mb 0.00 in0.0 mm 0.00 in/hr0.0 mm/hr 5.70 in144.8 mm
06:07 PM 74.4°F23.6°C 60.5°F15.8°C 62% 4.0 mph SW6.4 kmh SW 6.0 mph9.7 kmh 30.06 in1017.9 mb 0.00 in0.0 mm 0.00 in/hr0.0 mm/hr 5.70 in144.8 mm
06:06 PM 74.3°F23.5°C 60.9°F16.1°C 63% 4.0 mph SW6.4 kmh SW 9.0 mph14.5 kmh 30.06 in1017.9 mb 0.00 in0.0 mm 0.00 in/hr0.0 mm/hr 5.70 in144.8 mm
06:05 PM 74.3°F23.5°C 60.9°F16.1°C 63% 4.0 mph SW6.4 kmh SW 9.0 mph14.5 kmh 30.06 in1017.9 mb 0.00 in0.0 mm 0.00 in/hr0.0 mm/hr 5.70 in144.8 mm
06:04 PM 74.2°F23.4°C 61.2°F16.2°C 64% 4.0 mph SW6.4 kmh SW 9.0 mph14.5 kmh 30.06 in1017.9 mb 0.00 in0.0 mm 0.00 in/hr0.0 mm/hr 5.70 in144.8 mm
06:03 PM 74.0°F23.3°C 60.6°F15.9°C 63% 4.0 mph SW6.4 kmh SW 9.0 mph14.5 kmh 30.06 in1017.9 mb 0.00 in0.0 mm 0.00 in/hr0.0 mm/hr 5.70 in144.8 mm
06:02 PM 73.9°F23.3°C 60.1°F15.6°C 62% 4.0 mph SW6.4 kmh SW 9.0 mph14.5 kmh 30.06 in1017.9 mb 0.00 in0.0 mm 0.00 in/hr0.0 mm/hr 5.70 in144.8 mm
06:01 PM 73.8°F23.2°C 61.3°F16.3°C 65% 4.0 mph SW6.4 kmh SW 9.0 mph14.5 kmh 30.06 in1017.9 mb 0.00 in0.0 mm 0.00 in/hr0.0 mm/hr 5.70 in144.8 mm
06:00 PM 73.8°F23.2°C 60.4°F15.8°C 63% 4.0 mph SW6.4 kmh SW 9.0 mph14.5 kmh 30.06 in1017.9 mb 0.00 in0.0 mm 0.00 in/hr0.0 mm/hr 5.70 in144.8 mm
05:59 PM 73.9°F23.3°C 60.5°F15.8°C 63% 4.0 mph SW6.4 kmh SW 9.0 mph14.5 kmh 30.06 in1017.9 mb 0.00 in0.0 mm 0.00 in/hr0.0 mm/hr 5.70 in144.8 mm
05:58 PM 74.1°F23.4°C 60.2°F15.7°C 62% 4.0 mph SW6.4 kmh SW 9.0 mph14.5 kmh 30.06 in1017.9 mb 0.00 in0.0 mm 0.00 in/hr0.0 mm/hr 5.70 in144.8 mm
05:57 PM 74.4°F23.6°C 59.6°F15.3°C 60% 4.0 mph SW6.4 kmh SW 9.0 mph14.5 kmh 30.06 in1017.9 mb 0.00 in0.0 mm 0.00 in/hr0.0 mm/hr 5.70 in144.8 mm
05:56 PM 74.6°F23.7°C 60.3°F15.7°C 61% 4.0 mph SW6.4 kmh SW 8.0 mph12.9 kmh 30.06 in1017.9 mb 0.00 in0.0 mm 0.00 in/hr0.0 mm/hr 5.70 in144.8 mm
05:55 PM 74.7°F23.7°C 60.8°F16.0°C 62% 4.0 mph SW6.4 kmh SW 8.0 mph12.9 kmh 30.06 in1017.9 mb 0.00 in0.0 mm 0.00 in/hr0.0 mm/hr 5.70 in144.8 mm
05:54 PM 74.7°F23.7°C 61.7°F16.5°C 64% 4.0 mph SW6.4 kmh SW 8.0 mph12.9 kmh 30.06 in1017.9 mb 0.00 in0.0 mm 0.00 in/hr0.0 mm/hr 5.70 in144.8 mm
05:53 PM 74.6°F23.7°C 61.6°F16.4°C 64% 4.0 mph WSW6.4 kmh WSW 8.0 mph12.9 kmh 30.06 in1017.9 mb 0.00 in0.0 mm 0.00 in/hr0.0 mm/hr 5.70 in144.8 mm
05:52 PM 74.6°F23.7°C 60.7°F15.9°C 62% 4.0 mph WSW6.4 kmh WSW 8.0 mph12.9 kmh 30.06 in1017.9 mb 0.00 in0.0 mm 0.00 in/hr0.0 mm/hr 5.70 in144.8 mm
05:51 PM 74.5°F23.6°C 60.2°F15.7°C 61% 4.0 mph WSW6.4 kmh WSW 8.0 mph12.9 kmh 30.06 in1017.9 mb 0.00 in0.0 mm 0.00 in/hr0.0 mm/hr 5.70 in144.8 mm
05:50 PM 74.6°F23.7°C 60.3°F15.7°C 61% 4.0 mph WSW6.4 kmh WSW 8.0 mph12.9 kmh 30.06 in1017.9 mb 0.00 in0.0 mm 0.00 in/hr0.0 mm/hr 5.70 in144.8 mm
05:49 PM 74.6°F23.7°C 60.7°F15.9°C 62% 4.0 mph WSW6.4 kmh WSW 8.0 mph12.9 kmh 30.06 in1017.9 mb 0.00 in0.0 mm 0.00 in/hr0.0 mm/hr 5.70 in144.8 mm
05:48 PM 74.6°F23.7°C 60.7°F15.9°C 62% 4.0 mph WSW6.4 kmh WSW 8.0 mph12.9 kmh 30.06 in1017.9 mb 0.00 in0.0 mm 0.00 in/hr0.0 mm/hr 5.70 in144.8 mm
05:47 PM 74.6°F23.7°C 60.3°F15.7°C 61% 4.0 mph WSW6.4 kmh WSW 8.0 mph12.9 kmh 30.06 in1017.9 mb 0.00 in0.0 mm 0.00 in/hr0.0 mm/hr 5.70 in144.8 mm
05:46 PM 74.6°F23.7°C 59.8°F15.4°C 60% 4.0 mph WSW6.4 kmh WSW 8.0 mph12.9 kmh 30.06 in1017.9 mb 0.00 in0.0 mm 0.00 in/hr0.0 mm/hr 5.70 in144.8 mm
05:45 PM 74.6°F23.7°C 59.8°F15.4°C 60% 4.0 mph WSW6.4 kmh WSW 8.0 mph12.9 kmh 30.06 in1017.9 mb 0.00 in0.0 mm 0.00 in/hr0.0 mm/hr 5.70 in144.8 mm
05:44 PM 74.7°F23.7°C 60.4°F15.8°C 61% 4.0 mph SW6.4 kmh SW 8.0 mph12.9 kmh 30.06 in1017.9 mb 0.00 in0.0 mm 0.00 in/hr0.0 mm/hr 5.70 in144.8 mm
05:43 PM 74.8°F23.8°C 60.0°F15.6°C 60% 4.0 mph SW6.4 kmh SW 8.0 mph12.9 kmh 30.06 in1017.9 mb 0.00 in0.0 mm 0.00 in/hr0.0 mm/hr 5.70 in144.8 mm
05:42 PM 74.9°F23.8°C 59.6°F15.3°C 59% 4.0 mph SW6.4 kmh SW 8.0 mph12.9 kmh 30.06 in1017.9 mb 0.00 in0.0 mm 0.00 in/hr0.0 mm/hr 5.70 in144.8 mm
05:41 PM 75.0°F23.9°C 60.2°F15.7°C 60% 4.0 mph SW6.4 kmh SW 8.0 mph12.9 kmh 30.06 in1017.9 mb 0.00 in0.0 mm 0.00 in/hr0.0 mm/hr 5.70 in144.8 mm
05:40 PM 75.1°F23.9°C 60.3°F15.7°C 60% 4.0 mph SW6.4 kmh SW 8.0 mph12.9 kmh 30.06 in1017.9 mb 0.00 in0.0 mm 0.00 in/hr0.0 mm/hr 5.70 in144.8 mm
05:39 PM 75.1°F23.9°C 60.7°F15.9°C 61% 4.0 mph SW6.4 kmh SW 8.0 mph12.9 kmh 30.06 in1017.9 mb 0.00 in0.0 mm 0.00 in/hr0.0 mm/hr 5.70 in144.8 mm
05:38 PM 75.1°F23.9°C 60.7°F15.9°C 61% 4.0 mph SW6.4 kmh SW 8.0 mph12.9 kmh 30.06 in1017.9 mb 0.00 in0.0 mm 0.00 in/hr0.0 mm/hr 5.70 in144.8 mm
05:37 PM 75.1°F23.9°C 60.7°F15.9°C 61% 4.0 mph SW6.4 kmh SW 8.0 mph12.9 kmh 30.05 in1017.6 mb 0.00 in0.0 mm 0.00 in/hr0.0 mm/hr 5.70 in144.8 mm
05:36 PM 75.1°F23.9°C 60.7°F15.9°C 61% 4.0 mph SW6.4 kmh SW 8.0 mph12.9 kmh 30.05 in1017.6 mb 0.00 in0.0 mm 0.00 in/hr0.0 mm/hr 5.70 in144.8 mm
05:35 PM 75.0°F23.9°C 60.6°F15.9°C 61% 4.0 mph WSW6.4 kmh WSW 8.0 mph12.9 kmh 30.05 in1017.6 mb 0.00 in0.0 mm 0.00 in/hr0.0 mm/hr 5.70 in144.8 mm
05:34 PM 75.0°F23.9°C 60.6°F15.9°C 61% 4.0 mph WSW6.4 kmh WSW 8.0 mph12.9 kmh 30.05 in1017.6 mb 0.00 in0.0 mm 0.00 in/hr0.0 mm/hr 5.70 in144.8 mm
05:33 PM 75.0°F23.9°C 60.2°F15.7°C 60% 4.0 mph WSW6.4 kmh WSW 8.0 mph12.9 kmh 30.05 in1017.6 mb 0.00 in0.0 mm 0.00 in/hr0.0 mm/hr 5.70 in144.8 mm
05:32 PM 75.0°F23.9°C 60.6°F15.9°C 61% 4.0 mph WSW6.4 kmh WSW 8.0 mph12.9 kmh 30.05 in1017.6 mb 0.00 in0.0 mm 0.00 in/hr0.0 mm/hr 5.70 in144.8 mm
05:31 PM 75.1°F23.9°C 60.3°F15.7°C 60% 4.0 mph WSW6.4 kmh WSW 8.0 mph12.9 kmh 30.05 in1017.6 mb 0.00 in0.0 mm 0.00 in/hr0.0 mm/hr 5.70 in144.8 mm
05:30 PM 75.0°F23.9°C 61.1°F16.2°C 62% 4.0 mph WSW6.4 kmh WSW 8.0 mph12.9 kmh 30.05 in1017.6 mb 0.00 in0.0 mm 0.00 in/hr0.0 mm/hr 5.70 in144.8 mm
05:29 PM 75.0°F23.9°C 60.2°F15.7°C 60% 3.0 mph WSW4.8 kmh WSW 8.0 mph12.9 kmh 30.05 in1017.6 mb 0.00 in0.0 mm 0.00 in/hr0.0 mm/hr 5.70 in144.8 mm
05:28 PM 75.0°F23.9°C 59.7°F15.4°C 59% 3.0 mph WSW4.8 kmh WSW 8.0 mph12.9 kmh 30.05 in1017.6 mb 0.00 in0.0 mm 0.00 in/hr0.0 mm/hr 5.70 in144.8 mm
05:27 PM 75.2°F24.0°C 60.4°F15.8°C 60% 3.0 mph WSW4.8 kmh WSW 8.0 mph12.9 kmh 30.05 in1017.6 mb 0.00 in0.0 mm 0.00 in/hr0.0 mm/hr 5.70 in144.8 mm
05:26 PM 75.3°F24.1°C 60.0°F15.6°C 59% 2.0 mph WSW3.2 kmh WSW 8.0 mph12.9 kmh 30.05 in1017.6 mb 0.00 in0.0 mm 0.00 in/hr0.0 mm/hr 5.70 in144.8 mm
05:25 PM 75.3°F24.1°C 60.0°F15.6°C 59% 2.0 mph SW3.2 kmh SW 8.0 mph12.9 kmh 30.05 in1017.6 mb 0.00 in0.0 mm 0.00 in/hr0.0 mm/hr 5.70 in144.8 mm
05:24 PM 75.4°F24.1°C 60.1°F15.6°C 59% 2.0 mph SW3.2 kmh SW 8.0 mph12.9 kmh 30.05 in1017.6 mb 0.00 in0.0 mm 0.00 in/hr0.0 mm/hr 5.70 in144.8 mm
05:23 PM 75.5°F24.2°C 59.7°F15.4°C 58% 2.0 mph SW3.2 kmh SW 8.0 mph12.9 kmh 30.05 in1017.6 mb 0.00 in0.0 mm 0.00 in/hr0.0 mm/hr 5.70 in144.8 mm
05:22 PM 75.6°F24.2°C 59.8°F15.4°C 58% 2.0 mph SW3.2 kmh SW 7.0 mph11.3 kmh 30.05 in1017.6 mb 0.00 in0.0 mm 0.00 in/hr0.0 mm/hr 5.70 in144.8 mm
05:21 PM 75.6°F24.2°C 60.7°F15.9°C 60% 2.0 mph SW3.2 kmh SW 7.0 mph11.3 kmh 30.05 in1017.6 mb 0.00 in0.0 mm 0.00 in/hr0.0 mm/hr 5.70 in144.8 mm
05:20 PM 75.7°F24.3°C 61.3°F16.3°C 61% 2.0 mph SW3.2 kmh SW 7.0 mph11.3 kmh 30.05 in1017.6 mb 0.00 in0.0 mm 0.00 in/hr0.0 mm/hr 5.70 in144.8 mm
05:19 PM 75.8°F24.3°C 61.4°F16.3°C 61% 2.0 mph SW3.2 kmh SW 7.0 mph11.3 kmh 30.05 in1017.6 mb 0.00 in0.0 mm 0.00 in/hr0.0 mm/hr 5.70 in144.8 mm
05:18 PM 75.8°F24.3°C 61.8°F16.6°C 62% 2.0 mph SW3.2 kmh SW 6.0 mph9.7 kmh 30.05 in1017.6 mb 0.00 in0.0 mm 0.00 in/hr0.0 mm/hr 5.70 in144.8 mm
05:17 PM 75.8°F24.3°C 60.4°F15.8°C 59% 2.0 mph SW3.2 kmh SW 5.0 mph8.0 kmh 30.05 in1017.6 mb 0.00 in0.0 mm 0.00 in/hr0.0 mm/hr 5.70 in144.8 mm
05:16 PM 75.8°F24.3°C 61.4°F16.3°C 61% 2.0 mph SW3.2 kmh SW 5.0 mph8.0 kmh 30.05 in1017.6 mb 0.00 in0.0 mm 0.00 in/hr0.0 mm/hr 5.70 in144.8 mm
05:15 PM 75.6°F24.2°C 59.8°F15.4°C 58% 2.0 mph SW3.2 kmh SW 5.0 mph8.0 kmh 30.05 in1017.6 mb 0.00 in0.0 mm 0.00 in/hr0.0 mm/hr 5.70 in144.8 mm
05:14 PM 75.5°F24.2°C 61.6°F16.4°C 62% 3.0 mph SW4.8 kmh SW 5.0 mph8.0 kmh 30.05 in1017.6 mb 0.00 in0.0 mm 0.00 in/hr0.0 mm/hr 5.70 in144.8 mm
05:13 PM 75.3°F24.1°C 60.9°F16.1°C 61% 3.0 mph SW4.8 kmh SW 5.0 mph8.0 kmh 30.05 in1017.6 mb 0.00 in0.0 mm 0.00 in/hr0.0 mm/hr 5.70 in144.8 mm
05:12 PM 75.2°F24.0°C 60.8°F16.0°C 61% 3.0 mph SW4.8 kmh SW 5.0 mph8.0 kmh 30.05 in1017.6 mb 0.00 in0.0 mm 0.00 in/hr0.0 mm/hr 5.70 in144.8 mm
05:11 PM 75.2°F24.0°C 61.3°F16.3°C 62% 4.0 mph SW6.4 kmh SW 6.0 mph9.7 kmh 30.05 in1017.6 mb 0.00 in0.0 mm 0.00 in/hr0.0 mm/hr 5.70 in144.8 mm
05:10 PM 75.1°F23.9°C 61.6°F16.4°C 63% 4.0 mph SW6.4 kmh SW 7.0 mph11.3 kmh 30.05 in1017.6 mb 0.00 in0.0 mm 0.00 in/hr0.0 mm/hr 5.70 in144.8 mm
05:09 PM 74.9°F23.8°C 61.9°F16.6°C 64% 4.0 mph SW6.4 kmh SW 7.0 mph11.3 kmh 30.05 in1017.6 mb 0.00 in0.0 mm 0.00 in/hr0.0 mm/hr 5.70 in144.8 mm
05:08 PM 74.7°F23.7°C 59.9°F15.5°C 60% 4.0 mph SW6.4 kmh SW 7.0 mph11.3 kmh 30.05 in1017.6 mb 0.00 in0.0 mm 0.00 in/hr0.0 mm/hr 5.70 in144.8 mm
05:07 PM 74.7°F23.7°C 60.8°F16.0°C 62% 5.0 mph SW8.0 kmh SW 7.0 mph11.3 kmh 30.05 in1017.6 mb 0.00 in0.0 mm 0.00 in/hr0.0 mm/hr 5.70 in144.8 mm
05:06 PM 74.6°F23.7°C 61.2°F16.2°C 63% 5.0 mph SW8.0 kmh SW 10.0 mph16.1 kmh 30.05 in1017.6 mb 0.00 in0.0 mm 0.00 in/hr0.0 mm/hr 5.70 in144.8 mm
05:05 PM 74.5°F23.6°C 62.0°F16.7°C 65% 5.0 mph SW8.0 kmh SW 10.0 mph16.1 kmh 30.05 in1017.6 mb 0.00 in0.0 mm 0.00 in/hr0.0 mm/hr 5.70 in144.8 mm
05:04 PM 74.4°F23.6°C 60.1°F15.6°C 61% 5.0 mph SW8.0 kmh SW 10.0 mph16.1 kmh 30.05 in1017.6 mb 0.00 in0.0 mm 0.00 in/hr0.0 mm/hr 5.70 in144.8 mm
05:03 PM 74.4°F23.6°C 61.0°F16.1°C 63% 5.0 mph SW8.0 kmh SW 10.0 mph16.1 kmh 30.05 in1017.6 mb 0.00 in0.0 mm 0.00 in/hr0.0 mm/hr 5.70 in144.8 mm
05:02 PM 74.6°F23.7°C 59.8°F15.4°C 60% 5.0 mph SW8.0 kmh SW 10.0 mph16.1 kmh 30.05 in1017.6 mb 0.00 in0.0 mm 0.00 in/hr0.0 mm/hr 5.70 in144.8 mm
05:01 PM 74.8°F23.8°C 59.5°F15.3°C 59% 5.0 mph SW8.0 kmh SW 10.0 mph16.1 kmh 30.05 in1017.6 mb 0.00 in0.0 mm 0.00 in/hr0.0 mm/hr 5.70 in144.8 mm
05:00 PM 75.0°F23.9°C 60.6°F15.9°C 61% 4.0 mph SW6.4 kmh SW 10.0 mph16.1 kmh 30.05 in1017.6 mb 0.00 in0.0 mm 0.00 in/hr0.0 mm/hr 5.70 in144.8 mm
04:59 PM 75.1°F23.9°C 60.7°F15.9°C 61% 4.0 mph SW6.4 kmh SW 10.0 mph16.1 kmh 30.05 in1017.6 mb 0.00 in0.0 mm 0.00 in/hr0.0 mm/hr 5.70 in144.8 mm
04:58 PM 75.1°F23.9°C 60.7°F15.9°C 61% 4.0 mph SW6.4 kmh SW 10.0 mph16.1 kmh 30.05 in1017.6 mb 0.00 in0.0 mm 0.00 in/hr0.0 mm/hr 5.70 in144.8 mm
04:57 PM 75.1°F23.9°C 59.3°F15.2°C 58% 4.0 mph SW6.4 kmh SW 10.0 mph16.1 kmh 30.06 in1017.9 mb 0.00 in0.0 mm 0.00 in/hr0.0 mm/hr 5.70 in144.8 mm
04:56 PM 75.3°F24.1°C 60.0°F15.6°C 59% 4.0 mph SW6.4 kmh SW 10.0 mph16.1 kmh 30.05 in1017.6 mb 0.00 in0.0 mm 0.00 in/hr0.0 mm/hr 5.70 in144.8 mm
04:55 PM 75.3°F24.1°C 60.5°F15.8°C 60% 3.0 mph SW4.8 kmh SW 10.0 mph16.1 kmh 30.05 in1017.6 mb 0.00 in0.0 mm 0.00 in/hr0.0 mm/hr 5.70 in144.8 mm
04:54 PM 75.4°F24.1°C 60.5°F15.8°C 60% 3.0 mph SW4.8 kmh SW 10.0 mph16.1 kmh 30.05 in1017.6 mb 0.00 in0.0 mm 0.00 in/hr0.0 mm/hr 5.70 in144.8 mm
04:53 PM 75.4°F24.1°C 59.6°F15.3°C 58% 3.0 mph SW4.8 kmh SW 9.0 mph14.5 kmh 30.05 in1017.6 mb 0.00 in0.0 mm 0.00 in/hr0.0 mm/hr 5.70 in144.8 mm
04:52 PM 75.5°F24.2°C 60.2°F15.7°C 59% 3.0 mph SW4.8 kmh SW 9.0 mph14.5 kmh 30.05 in1017.6 mb 0.00 in0.0 mm 0.00 in/hr0.0 mm/hr 5.70 in144.8 mm
04:51 PM 75.6°F24.2°C 59.8°F15.4°C 58% 3.0 mph SW4.8 kmh SW 9.0 mph14.5 kmh 30.05 in1017.6 mb 0.00 in0.0 mm 0.00 in/hr0.0 mm/hr 5.70 in144.8 mm
04:50 PM 75.8°F24.3°C 60.0°F15.6°C 58% 3.0 mph SW4.8 kmh SW 9.0 mph14.5 kmh 30.05 in1017.6 mb 0.00 in0.0 mm 0.00 in/hr0.0 mm/hr 5.70 in144.8 mm
04:49 PM 75.9°F24.4°C 60.1°F15.6°C 58% 3.0 mph SW4.8 kmh SW 9.0 mph14.5 kmh 30.05 in1017.6 mb 0.00 in0.0 mm 0.00 in/hr0.0 mm/hr 5.70 in144.8 mm
04:48 PM 76.1°F24.5°C 60.2°F15.7°C 58% 3.0 mph SW4.8 kmh SW 10.0 mph16.1 kmh 30.05 in1017.6 mb 0.00 in0.0 mm 0.00 in/hr0.0 mm/hr 5.70 in144.8 mm
04:47 PM 76.2°F24.6°C 59.9°F15.5°C 57% 3.0 mph SW4.8 kmh SW 10.0 mph16.1 kmh 30.05 in1017.6 mb 0.00 in0.0 mm 0.00 in/hr0.0 mm/hr 5.70 in144.8 mm
04:46 PM 76.3°F24.6°C 60.4°F15.8°C 58% 3.0 mph SW4.8 kmh SW 10.0 mph16.1 kmh 30.05 in1017.6 mb 0.00 in0.0 mm 0.00 in/hr0.0 mm/hr 5.70 in144.8 mm
04:45 PM 76.4°F24.7°C 61.0°F16.1°C 59% 3.0 mph SW4.8 kmh SW 10.0 mph16.1 kmh 30.05 in1017.6 mb 0.00 in0.0 mm 0.00 in/hr0.0 mm/hr 5.70 in144.8 mm
04:44 PM 76.4°F24.7°C 61.5°F16.4°C 60% 3.0 mph SW4.8 kmh SW 10.0 mph16.1 kmh 30.05 in1017.6 mb 0.00 in0.0 mm 0.00 in/hr0.0 mm/hr 5.70 in144.8 mm
04:43 PM 76.3°F24.6°C 60.9°F16.1°C 59% 3.0 mph SW4.8 kmh SW 10.0 mph16.1 kmh 30.05 in1017.6 mb 0.00 in0.0 mm 0.00 in/hr0.0 mm/hr 5.70 in144.8 mm
04:42 PM 76.2°F24.6°C 60.8°F16.0°C 59% 3.0 mph SW4.8 kmh SW 10.0 mph16.1 kmh 30.05 in1017.6 mb 0.00 in0.0 mm 0.00 in/hr0.0 mm/hr 5.70 in144.8 mm
04:41 PM 76.1°F24.5°C 60.7°F15.9°C 59% 3.0 mph WSW4.8 kmh WSW 10.0 mph16.1 kmh 30.05 in1017.6 mb 0.00 in0.0 mm 0.00 in/hr0.0 mm/hr 5.70 in144.8 mm
04:40 PM 76.0°F24.4°C 60.2°F15.7°C 58% 3.0 mph WSW4.8 kmh WSW 10.0 mph16.1 kmh 30.05 in1017.6 mb 0.00 in0.0 mm 0.00 in/hr0.0 mm/hr 5.70 in144.8 mm
04:39 PM 76.0°F24.4°C 61.1°F16.2°C 60% 3.0 mph WSW4.8 kmh WSW 10.0 mph16.1 kmh 30.05 in1017.6 mb 0.00 in0.0 mm 0.00 in/hr0.0 mm/hr 5.70 in144.8 mm
04:38 PM 76.1°F24.5°C 62.1°F16.7°C 62% 3.0 mph SW4.8 kmh SW 10.0 mph16.1 kmh 30.05 in1017.6 mb 0.00 in0.0 mm 0.00 in/hr0.0 mm/hr 5.70 in144.8 mm
04:37 PM 75.9°F24.4°C 60.5°F15.8°C 59% 3.0 mph WSW4.8 kmh WSW 8.0 mph12.9 kmh 30.05 in1017.6 mb 0.00 in0.0 mm 0.00 in/hr0.0 mm/hr 5.70 in144.8 mm
04:36 PM 75.8°F24.3°C 60.4°F15.8°C 59% 3.0 mph WSW4.8 kmh WSW 8.0 mph12.9 kmh 30.05 in1017.6 mb 0.00 in0.0 mm 0.00 in/hr0.0 mm/hr 5.70 in144.8 mm
04:35 PM 75.7°F24.3°C 60.4°F15.8°C 59% 3.0 mph WSW4.8 kmh WSW 8.0 mph12.9 kmh 30.05 in1017.6 mb 0.00 in0.0 mm 0.00 in/hr0.0 mm/hr 5.70 in144.8 mm
04:34 PM 75.6°F24.2°C 62.1°F16.7°C 63% 3.0 mph WSW4.8 kmh WSW 8.0 mph12.9 kmh 30.05 in1017.6 mb 0.00 in0.0 mm 0.00 in/hr0.0 mm/hr 5.70 in144.8 mm
04:33 PM 75.5°F24.2°C 61.6°F16.4°C 62% 3.0 mph WSW4.8 kmh WSW 9.0 mph14.5 kmh 30.05 in1017.6 mb 0.00 in0.0 mm 0.00 in/hr0.0 mm/hr 5.70 in144.8 mm
04:32 PM 75.4°F24.1°C 61.0°F16.1°C 61% 3.0 mph SW4.8 kmh SW 9.0 mph14.5 kmh 30.05 in1017.6 mb 0.00 in0.0 mm 0.00 in/hr0.0 mm/hr 5.70 in144.8 mm
04:31 PM 75.3°F24.1°C 60.9°F16.1°C 61% 3.0 mph SW4.8 kmh SW 9.0 mph14.5 kmh 30.05 in1017.6 mb 0.00 in0.0 mm 0.00 in/hr0.0 mm/hr 5.70 in144.8 mm
04:30 PM 75.2°F24.0°C 62.2°F16.8°C 64% 3.0 mph SW4.8 kmh SW 9.0 mph14.5 kmh 30.05 in1017.6 mb 0.00 in0.0 mm 0.00 in/hr0.0 mm/hr 5.70 in144.8 mm
04:29 PM 75.1°F23.9°C 60.7°F15.9°C 61% 3.0 mph SW4.8 kmh SW 9.0 mph14.5 kmh 30.06 in1017.9 mb 0.00 in0.0 mm 0.00 in/hr0.0 mm/hr 5.70 in144.8 mm
04:28 PM 75.0°F23.9°C 60.2°F15.7°C 60% 3.0 mph SW4.8 kmh SW 9.0 mph14.5 kmh 30.06 in1017.9 mb 0.00 in0.0 mm 0.00 in/hr0.0 mm/hr 5.70 in144.8 mm
04:27 PM 74.9°F23.8°C 60.5°F15.8°C 61% 3.0 mph SW4.8 kmh SW 9.0 mph14.5 kmh 30.06 in1017.9 mb 0.00 in0.0 mm 0.00 in/hr0.0 mm/hr 5.70 in144.8 mm
04:26 PM 74.8°F23.8°C 60.9°F16.1°C 62% 3.0 mph SW4.8 kmh SW 9.0 mph14.5 kmh 30.06 in1017.9 mb 0.00 in0.0 mm 0.00 in/hr0.0 mm/hr 5.70 in144.8 mm
04:25 PM 74.8°F23.8°C 60.4°F15.8°C 61% 3.0 mph SW4.8 kmh SW 9.0 mph14.5 kmh 30.06 in1017.9 mb 0.00 in0.0 mm 0.00 in/hr0.0 mm/hr 5.70 in144.8 mm
04:24 PM 74.9°F23.8°C 60.1°F15.6°C 60% 3.0 mph SW4.8 kmh SW 9.0 mph14.5 kmh 30.06 in1017.9 mb 0.00 in0.0 mm 0.00 in/hr0.0 mm/hr 5.70 in144.8 mm
04:23 PM 74.9°F23.8°C 61.5°F16.4°C 63% 3.0 mph SW4.8 kmh SW 9.0 mph14.5 kmh 30.06 in1017.9 mb 0.00 in0.0 mm 0.00 in/hr0.0 mm/hr 5.70 in144.8 mm
04:22 PM 74.9°F23.8°C 61.9°F16.6°C 64% 3.0 mph SW4.8 kmh SW 9.0 mph14.5 kmh 30.06 in1017.9 mb 0.00 in0.0 mm 0.00 in/hr0.0 mm/hr 5.70 in144.8 mm
04:21 PM 74.7°F23.7°C 60.8°F16.0°C 62% 2.0 mph SW3.2 kmh SW 9.0 mph14.5 kmh 30.06 in1017.9 mb 0.00 in0.0 mm 0.00 in/hr0.0 mm/hr 5.70 in144.8 mm
04:20 PM 74.5°F23.6°C 61.1°F16.2°C 63% 2.0 mph SW3.2 kmh SW 9.0 mph14.5 kmh 30.06 in1017.9 mb 0.00 in0.0 mm 0.00 in/hr0.0 mm/hr 5.70 in144.8 mm
04:19 PM 74.4°F23.6°C 61.0°F16.1°C 63% 2.0 mph SW3.2 kmh SW 9.0 mph14.5 kmh 30.06 in1017.9 mb 0.00 in0.0 mm 0.00 in/hr0.0 mm/hr 5.70 in144.8 mm
04:18 PM 74.4°F23.6°C 60.1°F15.6°C 61% 2.0 mph SW3.2 kmh SW 9.0 mph14.5 kmh 30.06 in1017.9 mb 0.00 in0.0 mm 0.00 in/hr0.0 mm/hr 5.70 in144.8 mm
04:17 PM 74.6°F23.7°C 60.3°F15.7°C 61% 2.0 mph SW3.2 kmh SW 9.0 mph14.5 kmh 30.06 in1017.9 mb 0.00 in0.0 mm 0.00 in/hr0.0 mm/hr 5.70 in144.8 mm
04:16 PM 74.6°F23.7°C 61.2°F16.2°C 63% 2.0 mph SW3.2 kmh SW 7.0 mph11.3 kmh 30.06 in1017.9 mb 0.00 in0.0 mm 0.00 in/hr0.0 mm/hr 5.70 in144.8 mm
04:15 PM 74.6°F23.7°C 61.2°F16.2°C 63% 2.0 mph SW3.2 kmh SW 6.0 mph9.7 kmh 30.06 in1017.9 mb 0.00 in0.0 mm 0.00 in/hr0.0 mm/hr 5.70 in144.8 mm
04:14 PM 74.4°F23.6°C 60.5°F15.8°C 62% 2.0 mph SW3.2 kmh SW 6.0 mph9.7 kmh 30.06 in1017.9 mb 0.00 in0.0 mm 0.00 in/hr0.0 mm/hr 5.70 in144.8 mm
04:13 PM 74.2°F23.4°C 60.3°F15.7°C 62% 2.0 mph SW3.2 kmh SW 6.0 mph9.7 kmh 30.06 in1017.9 mb 0.00 in0.0 mm 0.00 in/hr0.0 mm/hr 5.70 in144.8 mm
04:12 PM 74.1°F23.4°C 60.7°F15.9°C 63% 2.0 mph SW3.2 kmh SW 6.0 mph9.7 kmh 30.06 in1017.9 mb 0.00 in0.0 mm 0.00 in/hr0.0 mm/hr 5.70 in144.8 mm
04:11 PM 74.0°F23.3°C 60.2°F15.7°C 62% 3.0 mph SW4.8 kmh SW 6.0 mph9.7 kmh 30.06 in1017.9 mb 0.00 in0.0 mm 0.00 in/hr0.0 mm/hr 5.70 in144.8 mm
04:10 PM 73.9°F23.3°C 60.5°F15.8°C 63% 3.0 mph SW4.8 kmh SW 6.0 mph9.7 kmh 30.06 in1017.9 mb 0.00 in0.0 mm 0.00 in/hr0.0 mm/hr 5.70 in144.8 mm
04:09 PM 73.8°F23.2°C 60.4°F15.8°C 63% 3.0 mph SW4.8 kmh SW 6.0 mph9.7 kmh 30.06 in1017.9 mb 0.00 in0.0 mm 0.00 in/hr0.0 mm/hr 5.70 in144.8 mm
04:08 PM 73.7°F23.2°C 59.9°F15.5°C 62% 3.0 mph SW4.8 kmh SW 6.0 mph9.7 kmh 30.06 in1017.9 mb 0.00 in0.0 mm 0.00 in/hr0.0 mm/hr 5.70 in144.8 mm
04:07 PM 73.7°F23.2°C 60.3°F15.7°C 63% 3.0 mph SW4.8 kmh SW 6.0 mph9.7 kmh 30.06 in1017.9 mb 0.00 in0.0 mm 0.00 in/hr0.0 mm/hr 5.70 in144.8 mm
04:06 PM 73.6°F23.1°C 59.8°F15.4°C 62% 3.0 mph SW4.8 kmh SW 6.0 mph9.7 kmh 30.06 in1017.9 mb 0.00 in0.0 mm 0.00 in/hr0.0 mm/hr 5.70 in144.8 mm
04:05 PM 73.7°F23.2°C 60.3°F15.7°C 63% 3.0 mph WSW4.8 kmh WSW 8.0 mph12.9 kmh 30.06 in1017.9 mb 0.00 in0.0 mm 0.00 in/hr0.0 mm/hr 5.70 in144.8 mm
04:04 PM 73.7°F23.2°C 59.4°F15.2°C 61% 3.0 mph SW4.8 kmh SW 9.0 mph14.5 kmh 30.07 in1018.3 mb 0.00 in0.0 mm 0.00 in/hr0.0 mm/hr 5.70 in144.8 mm
04:03 PM 73.7°F23.2°C 59.9°F15.5°C 62% 4.0 mph SW6.4 kmh SW 11.0 mph17.7 kmh 30.06 in1017.9 mb 0.00 in0.0 mm 0.00 in/hr0.0 mm/hr 5.70 in144.8 mm
04:02 PM 73.7°F23.2°C 60.3°F15.7°C 63% 4.0 mph SW6.4 kmh SW 11.0 mph17.7 kmh 30.06 in1017.9 mb 0.00 in0.0 mm 0.00 in/hr0.0 mm/hr 5.70 in144.8 mm
04:01 PM 73.7°F23.2°C 59.4°F15.2°C 61% 4.0 mph SW6.4 kmh SW 11.0 mph17.7 kmh 30.06 in1017.9 mb 0.00 in0.0 mm 0.00 in/hr0.0 mm/hr 5.70 in144.8 mm
04:00 PM 73.7°F23.2°C 59.9°F15.5°C 62% 4.0 mph SW6.4 kmh SW 11.0 mph17.7 kmh 30.07 in1018.3 mb 0.00 in0.0 mm 0.00 in/hr0.0 mm/hr 5.70 in144.8 mm
03:59 PM 73.8°F23.2°C 60.0°F15.6°C 62% 4.0 mph SW6.4 kmh SW 11.0 mph17.7 kmh 30.06 in1017.9 mb 0.00 in0.0 mm 0.00 in/hr0.0 mm/hr 5.70 in144.8 mm
03:58 PM 73.9°F23.3°C 60.1°F15.6°C 62% 4.0 mph SW6.4 kmh SW 11.0 mph17.7 kmh 30.06 in1017.9 mb 0.00 in0.0 mm 0.00 in/hr0.0 mm/hr 5.70 in144.8 mm
03:57 PM 74.0°F23.3°C 61.0°F16.1°C 64% 4.0 mph SW6.4 kmh SW 11.0 mph17.7 kmh 30.06 in1017.9 mb 0.00 in0.0 mm 0.00 in/hr0.0 mm/hr 5.70 in144.8 mm
03:56 PM 74.0°F23.3°C 60.2°F15.7°C 62% 4.0 mph SW6.4 kmh SW 11.0 mph17.7 kmh 30.06 in1017.9 mb 0.00 in0.0 mm 0.00 in/hr0.0 mm/hr 5.70 in144.8 mm
03:55 PM 74.1°F23.4°C 60.2°F15.7°C 62% 4.0 mph SW6.4 kmh SW 11.0 mph17.7 kmh 30.06 in1017.9 mb 0.00 in0.0 mm 0.00 in/hr0.0 mm/hr 5.70 in144.8 mm
03:54 PM 74.2°F23.4°C 59.4°F15.2°C 60% 4.0 mph SW6.4 kmh SW 11.0 mph17.7 kmh 30.06 in1017.9 mb 0.00 in0.0 mm 0.00 in/hr0.0 mm/hr 5.70 in144.8 mm
03:53 PM 74.2°F23.4°C 61.7°F16.5°C 65% 4.0 mph SW6.4 kmh SW 10.0 mph16.1 kmh 30.06 in1017.9 mb 0.00 in0.0 mm 0.00 in/hr0.0 mm/hr 5.70 in144.8 mm
03:52 PM 74.1°F23.4°C 60.2°F15.7°C 62% 4.0 mph SW6.4 kmh SW 10.0 mph16.1 kmh 30.06 in1017.9 mb 0.00 in0.0 mm 0.00 in/hr0.0 mm/hr 5.70 in144.8 mm
03:51 PM 74.1°F23.4°C 59.8°F15.4°C 61% 4.0 mph SW6.4 kmh SW 10.0 mph16.1 kmh 30.06 in1017.9 mb 0.00 in0.0 mm 0.00 in/hr0.0 mm/hr 5.70 in144.8 mm
03:50 PM 74.3°F23.5°C 59.5°F15.3°C 60% 4.0 mph SW6.4 kmh SW 10.0 mph16.1 kmh 30.06 in1017.9 mb 0.00 in0.0 mm 0.00 in/hr0.0 mm/hr 5.70 in144.8 mm
03:49 PM 74.5°F23.6°C 59.7°F15.4°C 60% 4.0 mph SW6.4 kmh SW 10.0 mph16.1 kmh 30.06 in1017.9 mb 0.00 in0.0 mm 0.00 in/hr0.0 mm/hr 5.70 in144.8 mm
03:48 PM 74.7°F23.7°C 59.4°F15.2°C 59% 4.0 mph SW6.4 kmh SW 10.0 mph16.1 kmh 30.07 in1018.3 mb 0.00 in0.0 mm 0.00 in/hr0.0 mm/hr 5.70 in144.8 mm
03:47 PM 74.8°F23.8°C 60.4°F15.8°C 61% 4.0 mph SW6.4 kmh SW 8.0 mph12.9 kmh 30.06 in1017.9 mb 0.00 in0.0 mm 0.00 in/hr0.0 mm/hr 5.70 in144.8 mm
03:46 PM 74.8°F23.8°C 59.5°F15.3°C 59% 4.0 mph SW6.4 kmh SW 8.0 mph12.9 kmh 30.06 in1017.9 mb 0.00 in0.0 mm 0.00 in/hr0.0 mm/hr 5.70 in144.8 mm
03:45 PM 74.8°F23.8°C 61.4°F16.3°C 63% 4.0 mph SW6.4 kmh SW 8.0 mph12.9 kmh 30.07 in1018.3 mb 0.00 in0.0 mm 0.00 in/hr0.0 mm/hr 5.70 in144.8 mm
03:44 PM 74.7°F23.7°C 59.4°F15.2°C 59% 4.0 mph SW6.4 kmh SW 7.0 mph11.3 kmh 30.07 in1018.3 mb 0.00 in0.0 mm 0.00 in/hr0.0 mm/hr 5.70 in144.8 mm
03:43 PM 74.6°F23.7°C 59.8°F15.4°C 60% 4.0 mph SW6.4 kmh SW 7.0 mph11.3 kmh 30.07 in1018.3 mb 0.00 in0.0 mm 0.00 in/hr0.0 mm/hr 5.70 in144.8 mm
03:42 PM 74.6°F23.7°C 59.3°F15.2°C 59% 4.0 mph SW6.4 kmh SW 7.0 mph11.3 kmh 30.07 in1018.3 mb 0.00 in0.0 mm 0.00 in/hr0.0 mm/hr 5.70 in144.8 mm
03:41 PM 74.5°F23.6°C 60.2°F15.7°C 61% 4.0 mph WSW6.4 kmh WSW 7.0 mph11.3 kmh 30.06 in1017.9 mb 0.00 in0.0 mm 0.00 in/hr0.0 mm/hr 5.70 in144.8 mm
03:40 PM 74.5°F23.6°C 59.7°F15.4°C 60% 4.0 mph WSW6.4 kmh WSW 7.0 mph11.3 kmh 30.06 in1017.9 mb 0.00 in0.0 mm 0.00 in/hr0.0 mm/hr 5.70 in144.8 mm
03:39 PM 74.5°F23.6°C 58.8°F14.9°C 58% 4.0 mph WSW6.4 kmh WSW 7.0 mph11.3 kmh 30.07 in1018.3 mb 0.00 in0.0 mm 0.00 in/hr0.0 mm/hr 5.70 in144.8 mm
03:38 PM 74.6°F23.7°C 59.8°F15.4°C 60% 4.0 mph WSW6.4 kmh WSW 7.0 mph11.3 kmh 30.07 in1018.3 mb 0.00 in0.0 mm 0.00 in/hr0.0 mm/hr 5.70 in144.8 mm
03:37 PM 74.6°F23.7°C 60.3°F15.7°C 61% 4.0 mph SW6.4 kmh SW 7.0 mph11.3 kmh 30.06 in1017.9 mb 0.00 in0.0 mm 0.00 in/hr0.0 mm/hr 5.70 in144.8 mm
03:36 PM 74.6°F23.7°C 59.3°F15.2°C 59% 4.0 mph SW6.4 kmh SW 8.0 mph12.9 kmh 30.07 in1018.3 mb 0.00 in0.0 mm 0.00 in/hr0.0 mm/hr 5.70 in144.8 mm
03:35 PM 74.7°F23.7°C 60.8°F16.0°C 62% 4.0 mph SW6.4 kmh SW 9.0 mph14.5 kmh 30.07 in1018.3 mb 0.00 in0.0 mm 0.00 in/hr0.0 mm/hr 5.70 in144.8 mm
03:34 PM 74.6°F23.7°C 58.8°F14.9°C 58% 4.0 mph SW6.4 kmh SW 9.0 mph14.5 kmh 30.07 in1018.3 mb 0.00 in0.0 mm 0.00 in/hr0.0 mm/hr 5.70 in144.8 mm
03:33 PM 74.8°F23.8°C 58.5°F14.7°C 57% 4.0 mph SW6.4 kmh SW 9.0 mph14.5 kmh 30.07 in1018.3 mb 0.00 in0.0 mm 0.00 in/hr0.0 mm/hr 5.70 in144.8 mm
03:32 PM 74.9°F23.8°C 59.1°F15.1°C 58% 4.0 mph SW6.4 kmh SW 9.0 mph14.5 kmh 30.07 in1018.3 mb 0.00 in0.0 mm 0.00 in/hr0.0 mm/hr 5.70 in144.8 mm
03:31 PM 75.0°F23.9°C 60.2°F15.7°C 60% 4.0 mph SW6.4 kmh SW 9.0 mph14.5 kmh 30.07 in1018.3 mb 0.00 in0.0 mm 0.00 in/hr0.0 mm/hr 5.70 in144.8 mm
03:30 PM 75.2°F24.0°C 61.7°F16.5°C 63% 4.0 mph SW6.4 kmh SW 9.0 mph14.5 kmh 30.07 in1018.3 mb 0.00 in0.0 mm 0.00 in/hr0.0 mm/hr 5.70 in144.8 mm
03:29 PM 75.3°F24.1°C 61.8°F16.6°C 63% 5.0 mph SW8.0 kmh SW 9.0 mph14.5 kmh 30.07 in1018.3 mb 0.00 in0.0 mm 0.00 in/hr0.0 mm/hr 5.70 in144.8 mm
03:28 PM 75.5°F24.2°C 61.6°F16.4°C 62% 5.0 mph SW8.0 kmh SW 9.0 mph14.5 kmh 30.07 in1018.3 mb 0.00 in0.0 mm 0.00 in/hr0.0 mm/hr 5.70 in144.8 mm
03:27 PM 75.5°F24.2°C 60.2°F15.7°C 59% 5.0 mph SW8.0 kmh SW 9.0 mph14.5 kmh 30.07 in1018.3 mb 0.00 in0.0 mm 0.00 in/hr0.0 mm/hr 5.70 in144.8 mm
03:26 PM 75.7°F24.3°C 59.9°F15.5°C 58% 5.0 mph SW8.0 kmh SW 9.0 mph14.5 kmh 30.07 in1018.3 mb 0.00 in0.0 mm 0.00 in/hr0.0 mm/hr 5.70 in144.8 mm
03:25 PM 75.8°F24.3°C 63.2°F17.3°C 65% 5.0 mph SW8.0 kmh SW 9.0 mph14.5 kmh 30.07 in1018.3 mb 0.00 in0.0 mm 0.00 in/hr0.0 mm/hr 5.70 in144.8 mm
03:24 PM 75.6°F24.2°C 62.1°F16.7°C 63% 6.0 mph SW9.7 kmh SW 9.0 mph14.5 kmh 30.07 in1018.3 mb 0.00 in0.0 mm 0.00 in/hr0.0 mm/hr 5.70 in144.8 mm
03:23 PM 75.4°F24.1°C 61.9°F16.6°C 63% 6.0 mph SW9.7 kmh SW 10.0 mph16.1 kmh 30.07 in1018.3 mb 0.00 in0.0 mm 0.00 in/hr0.0 mm/hr 5.70 in144.8 mm
03:22 PM 75.2°F24.0°C 58.9°F14.9°C 57% 6.0 mph SW9.7 kmh SW 10.0 mph16.1 kmh 30.07 in1018.3 mb 0.00 in0.0 mm 0.00 in/hr0.0 mm/hr 5.70 in144.8 mm
03:21 PM 75.1°F23.9°C 58.8°F14.9°C 57% 6.0 mph SW9.7 kmh SW 10.0 mph16.1 kmh 30.07 in1018.3 mb 0.00 in0.0 mm 0.00 in/hr0.0 mm/hr 5.70 in144.8 mm
03:20 PM 75.3°F24.1°C 59.5°F15.3°C 58% 6.0 mph SW9.7 kmh SW 10.0 mph16.1 kmh 30.07 in1018.3 mb 0.00 in0.0 mm 0.00 in/hr0.0 mm/hr 5.70 in144.8 mm
03:19 PM 75.4°F24.1°C 60.1°F15.6°C 59% 6.0 mph SW9.7 kmh SW 10.0 mph16.1 kmh 30.07 in1018.3 mb 0.00 in0.0 mm 0.00 in/hr0.0 mm/hr 5.70 in144.8 mm
03:18 PM 75.3°F24.1°C 62.7°F17.1°C 65% 6.0 mph SW9.7 kmh SW 11.0 mph17.7 kmh 30.07 in1018.3 mb 0.00 in0.0 mm 0.00 in/hr0.0 mm/hr 5.70 in144.8 mm
03:17 PM 75.3°F24.1°C 61.4°F16.3°C 62% 6.0 mph SW9.7 kmh SW 11.0 mph17.7 kmh 30.07 in1018.3 mb 0.00 in0.0 mm 0.00 in/hr0.0 mm/hr 5.70 in144.8 mm
03:16 PM 75.2°F24.0°C 60.4°F15.8°C 60% 5.0 mph SW8.0 kmh SW 11.0 mph17.7 kmh 30.07 in1018.3 mb 0.00 in0.0 mm 0.00 in/hr0.0 mm/hr 5.70 in144.8 mm
03:15 PM 75.2°F24.0°C 61.3°F16.3°C 62% 5.0 mph SW8.0 kmh SW 11.0 mph17.7 kmh 30.07 in1018.3 mb 0.00 in0.0 mm 0.00 in/hr0.0 mm/hr 5.70 in144.8 mm
03:14 PM 75.2°F24.0°C 60.4°F15.8°C 60% 5.0 mph SW8.0 kmh SW 11.0 mph17.7 kmh 30.07 in1018.3 mb 0.00 in0.0 mm 0.00 in/hr0.0 mm/hr 5.70 in144.8 mm
03:13 PM 75.1°F23.9°C 60.7°F15.9°C 61% 4.0 mph WSW6.4 kmh WSW 11.0 mph17.7 kmh 30.06 in1017.9 mb 0.00 in0.0 mm 0.00 in/hr0.0 mm/hr 5.70 in144.8 mm
03:12 PM 75.2°F24.0°C 59.9°F15.5°C 59% 4.0 mph WSW6.4 kmh WSW 11.0 mph17.7 kmh 30.07 in1018.3 mb 0.00 in0.0 mm 0.00 in/hr0.0 mm/hr 5.70 in144.8 mm
03:11 PM 75.3°F24.1°C 59.5°F15.3°C 58% 4.0 mph WSW6.4 kmh WSW 13.0 mph20.9 kmh 30.06 in1017.9 mb 0.00 in0.0 mm 0.00 in/hr0.0 mm/hr 5.70 in144.8 mm
03:10 PM 75.4°F24.1°C 59.6°F15.3°C 58% 3.0 mph SW4.8 kmh SW 13.0 mph20.9 kmh 30.06 in1017.9 mb 0.00 in0.0 mm 0.00 in/hr0.0 mm/hr 5.70 in144.8 mm
03:09 PM 75.5°F24.2°C 60.2°F15.7°C 59% 3.0 mph SW4.8 kmh SW 13.0 mph20.9 kmh 30.06 in1017.9 mb 0.00 in0.0 mm 0.00 in/hr0.0 mm/hr 5.70 in144.8 mm
03:08 PM 75.5°F24.2°C 60.6°F15.9°C 60% 3.0 mph SW4.8 kmh SW 13.0 mph20.9 kmh 30.06 in1017.9 mb 0.00 in0.0 mm 0.00 in/hr0.0 mm/hr 5.70 in144.8 mm
03:07 PM 75.5°F24.2°C 58.7°F14.8°C 56% 2.0 mph SW3.2 kmh SW 13.0 mph20.9 kmh 30.06 in1017.9 mb 0.00 in0.0 mm 0.00 in/hr0.0 mm/hr 5.70 in144.8 mm
03:06 PM 75.7°F24.3°C 59.4°F15.2°C 57% 2.0 mph SW3.2 kmh SW 13.0 mph20.9 kmh 30.06 in1017.9 mb 0.00 in0.0 mm 0.00 in/hr0.0 mm/hr 5.70 in144.8 mm
03:05 PM 76.0°F24.4°C 60.6°F15.9°C 59% 2.0 mph SW3.2 kmh SW 13.0 mph20.9 kmh 30.06 in1017.9 mb 0.00 in0.0 mm 0.00 in/hr0.0 mm/hr 5.70 in144.8 mm
03:04 PM 76.2°F24.6°C 59.4°F15.2°C 56% 2.0 mph SW3.2 kmh SW 13.0 mph20.9 kmh 30.06 in1017.9 mb 0.00 in0.0 mm 0.00 in/hr0.0 mm/hr 5.70 in144.8 mm
03:03 PM 76.4°F24.7°C 59.5°F15.3°C 56% 2.0 mph SW3.2 kmh SW 13.0 mph20.9 kmh 30.06 in1017.9 mb 0.00 in0.0 mm 0.00 in/hr0.0 mm/hr 5.70 in144.8 mm
03:02 PM 76.7°F24.8°C 63.6°F17.6°C 64% 3.0 mph SW4.8 kmh SW 13.0 mph20.9 kmh 30.06 in1017.9 mb 0.00 in0.0 mm 0.00 in/hr0.0 mm/hr 5.70 in144.8 mm
03:01 PM 76.7°F24.8°C 62.2°F16.8°C 61% 3.0 mph WSW4.8 kmh WSW 8.0 mph12.9 kmh 30.06 in1017.9 mb 0.00 in0.0 mm 0.00 in/hr0.0 mm/hr 5.70 in144.8 mm
03:00 PM 76.6°F24.8°C 61.7°F16.5°C 60% 3.0 mph WSW4.8 kmh WSW 8.0 mph12.9 kmh 30.06 in1017.9 mb 0.00 in0.0 mm 0.00 in/hr0.0 mm/hr 5.70 in144.8 mm
02:59 PM 76.2°F24.6°C 61.8°F16.6°C 61% 3.0 mph SW4.8 kmh SW 8.0 mph12.9 kmh 30.06 in1017.9 mb 0.00 in0.0 mm 0.00 in/hr0.0 mm/hr 5.70 in144.8 mm
02:58 PM 76.0°F24.4°C 61.1°F16.2°C 60% 3.0 mph SW4.8 kmh SW 9.0 mph14.5 kmh 30.06 in1017.9 mb 0.00 in0.0 mm 0.00 in/hr0.0 mm/hr 5.70 in144.8 mm
02:57 PM 75.8°F24.3°C 60.0°F15.6°C 58% 3.0 mph SW4.8 kmh SW 9.0 mph14.5 kmh 30.06 in1017.9 mb 0.00 in0.0 mm 0.00 in/hr0.0 mm/hr 5.70 in144.8 mm
02:56 PM 75.8°F24.3°C 59.5°F15.3°C 57% 3.0 mph SW4.8 kmh SW 9.0 mph14.5 kmh 30.06 in1017.9 mb 0.00 in0.0 mm 0.00 in/hr0.0 mm/hr 5.70 in144.8 mm
02:55 PM 75.9°F24.4°C 60.5°F15.8°C 59% 3.0 mph SW4.8 kmh SW 9.0 mph14.5 kmh 30.06 in1017.9 mb 0.00 in0.0 mm 0.00 in/hr0.0 mm/hr 5.70 in144.8 mm
02:54 PM 75.8°F24.3°C 60.9°F16.1°C 60% 3.0 mph SW4.8 kmh SW 9.0 mph14.5 kmh 30.06 in1017.9 mb 0.00 in0.0 mm 0.00 in/hr0.0 mm/hr 5.70 in144.8 mm
02:53 PM 75.6°F24.2°C 61.7°F16.5°C 62% 3.0 mph SW4.8 kmh SW 9.0 mph14.5 kmh 30.06 in1017.9 mb 0.00 in0.0 mm 0.00 in/hr0.0 mm/hr 5.70 in144.8 mm
02:52 PM 75.5°F24.2°C 62.0°F16.7°C 63% 3.0 mph SW4.8 kmh SW 9.0 mph14.5 kmh 30.06 in1017.9 mb 0.00 in0.0 mm 0.00 in/hr0.0 mm/hr 5.70 in144.8 mm
02:51 PM 75.3°F24.1°C 61.8°F16.6°C 63% 3.0 mph SW4.8 kmh SW 9.0 mph14.5 kmh 30.06 in1017.9 mb 0.00 in0.0 mm 0.00 in/hr0.0 mm/hr 5.70 in144.8 mm
02:50 PM 75.2°F24.0°C 62.2°F16.8°C 64% 3.0 mph SW4.8 kmh SW 9.0 mph14.5 kmh 30.06 in1017.9 mb 0.00 in0.0 mm 0.00 in/hr0.0 mm/hr 5.70 in144.8 mm
02:49 PM 75.2°F24.0°C 60.4°F15.8°C 60% 3.0 mph SW4.8 kmh SW 10.0 mph16.1 kmh 30.06 in1017.9 mb 0.00 in0.0 mm 0.00 in/hr0.0 mm/hr 5.70 in144.8 mm
02:48 PM 75.0°F23.9°C 60.2°F15.7°C 60% 3.0 mph SW4.8 kmh SW 10.0 mph16.1 kmh 30.06 in1017.9 mb 0.00 in0.0 mm 0.00 in/hr0.0 mm/hr 5.70 in144.8 mm
02:47 PM 74.9°F23.8°C 61.0°F16.1°C 62% 3.0 mph SW4.8 kmh SW 10.0 mph16.1 kmh 30.06 in1017.9 mb 0.00 in0.0 mm 0.00 in/hr0.0 mm/hr 5.70 in144.8 mm
02:46 PM 74.9°F23.8°C 60.1°F15.6°C 60% 3.0 mph SW4.8 kmh SW 10.0 mph16.1 kmh 30.06 in1017.9 mb 0.00 in0.0 mm 0.00 in/hr0.0 mm/hr 5.70 in144.8 mm
02:45 PM 74.9°F23.8°C 59.6°F15.3°C 59% 2.0 mph SW3.2 kmh SW 10.0 mph16.1 kmh 30.06 in1017.9 mb 0.00 in0.0 mm 0.00 in/hr0.0 mm/hr 5.70 in144.8 mm
02:44 PM 75.1°F23.9°C 58.8°F14.9°C 57% 2.0 mph SW3.2 kmh SW 10.0 mph16.1 kmh 30.06 in1017.9 mb 0.00 in0.0 mm 0.00 in/hr0.0 mm/hr 5.70 in144.8 mm
02:43 PM 75.2°F24.0°C 58.9°F14.9°C 57% 2.0 mph SW3.2 kmh SW 10.0 mph16.1 kmh 30.06 in1017.9 mb 0.00 in0.0 mm 0.00 in/hr0.0 mm/hr 5.70 in144.8 mm
02:42 PM 75.3°F24.1°C 58.5°F14.7°C 56% 2.0 mph SW3.2 kmh SW 10.0 mph16.1 kmh 30.06 in1017.9 mb 0.00 in0.0 mm 0.00 in/hr0.0 mm/hr 5.70 in144.8 mm
02:41 PM 75.5°F24.2°C 59.7°F15.4°C 58% 2.0 mph SW3.2 kmh SW 10.0 mph16.1 kmh 30.06 in1017.9 mb 0.00 in0.0 mm 0.00 in/hr0.0 mm/hr 5.70 in144.8 mm
02:40 PM 75.5°F24.2°C 60.2°F15.7°C 59% 2.0 mph SW3.2 kmh SW 10.0 mph16.1 kmh 30.06 in1017.9 mb 0.00 in0.0 mm 0.00 in/hr0.0 mm/hr 5.70 in144.8 mm
02:39 PM 75.7°F24.3°C 60.4°F15.8°C 59% 2.0 mph SW3.2 kmh SW 8.0 mph12.9 kmh 30.06 in1017.9 mb 0.00 in0.0 mm 0.00 in/hr0.0 mm/hr 5.70 in144.8 mm
02:38 PM 75.7°F24.3°C 60.4°F15.8°C 59% 2.0 mph SW3.2 kmh SW 6.0 mph9.7 kmh 30.06 in1017.9 mb 0.00 in0.0 mm 0.00 in/hr0.0 mm/hr 5.70 in144.8 mm
02:37 PM 75.7°F24.3°C 60.4°F15.8°C 59% 2.0 mph SW3.2 kmh SW 6.0 mph9.7 kmh 30.07 in1018.3 mb 0.00 in0.0 mm 0.00 in/hr0.0 mm/hr 5.70 in144.8 mm
02:36 PM 75.6°F24.2°C 61.2°F16.2°C 61% 2.0 mph SW3.2 kmh SW 6.0 mph9.7 kmh 30.06 in1017.9 mb 0.00 in0.0 mm 0.00 in/hr0.0 mm/hr 5.70 in144.8 mm
02:35 PM 75.6°F24.2°C 61.2°F16.2°C 61% 2.0 mph SW3.2 kmh SW 6.0 mph9.7 kmh 30.07 in1018.3 mb 0.00 in0.0 mm 0.00 in/hr0.0 mm/hr 5.70 in144.8 mm
02:34 PM 75.4°F24.1°C 61.0°F16.1°C 61% 2.0 mph SW3.2 kmh SW 6.0 mph9.7 kmh 30.07 in1018.3 mb 0.00 in0.0 mm 0.00 in/hr0.0 mm/hr 5.70 in144.8 mm
02:33 PM 75.3°F24.1°C 60.0°F15.6°C 59% 2.0 mph SW3.2 kmh SW 6.0 mph9.7 kmh 30.07 in1018.3 mb 0.00 in0.0 mm 0.00 in/hr0.0 mm/hr 5.70 in144.8 mm
02:32 PM 75.2°F24.0°C 59.4°F15.2°C 58% 2.0 mph SW3.2 kmh SW 6.0 mph9.7 kmh 30.07 in1018.3 mb 0.00 in0.0 mm 0.00 in/hr0.0 mm/hr 5.70 in144.8 mm
02:31 PM 75.1°F23.9°C 60.3°F15.7°C 60% 2.0 mph SW3.2 kmh SW 6.0 mph9.7 kmh 30.07 in1018.3 mb 0.00 in0.0 mm 0.00 in/hr0.0 mm/hr 5.70 in144.8 mm
02:30 PM 75.0°F23.9°C 60.6°F15.9°C 61% 2.0 mph SW3.2 kmh SW 6.0 mph9.7 kmh 30.07 in1018.3 mb 0.00 in0.0 mm 0.00 in/hr0.0 mm/hr 5.70 in144.8 mm
02:29 PM 74.9°F23.8°C 60.5°F15.8°C 61% 2.0 mph SW3.2 kmh SW 6.0 mph9.7 kmh 30.07 in1018.3 mb 0.00 in0.0 mm 0.00 in/hr0.0 mm/hr 5.70 in144.8 mm
02:28 PM 74.9°F23.8°C 60.5°F15.8°C 61% 2.0 mph SW3.2 kmh SW 6.0 mph9.7 kmh 30.07 in1018.3 mb 0.00 in0.0 mm 0.00 in/hr0.0 mm/hr 5.70 in144.8 mm
02:27 PM 74.9°F23.8°C 60.5°F15.8°C 61% 2.0 mph SW3.2 kmh SW 5.0 mph8.0 kmh 30.07 in1018.3 mb 0.00 in0.0 mm 0.00 in/hr0.0 mm/hr 5.70 in144.8 mm
02:26 PM 74.7°F23.7°C 60.4°F15.8°C 61% 2.0 mph SW3.2 kmh SW 5.0 mph8.0 kmh 30.07 in1018.3 mb 0.00 in0.0 mm 0.00 in/hr0.0 mm/hr 5.70 in144.8 mm
02:25 PM 74.5°F23.6°C 59.7°F15.4°C 60% 2.0 mph SW3.2 kmh SW 5.0 mph8.0 kmh 30.07 in1018.3 mb 0.00 in0.0 mm 0.00 in/hr0.0 mm/hr 5.70 in144.8 mm
02:24 PM 74.5°F23.6°C 59.7°F15.4°C 60% 2.0 mph SW3.2 kmh SW 5.0 mph8.0 kmh 30.07 in1018.3 mb 0.00 in0.0 mm 0.00 in/hr0.0 mm/hr 5.70 in144.8 mm
02:23 PM 74.4°F23.6°C 60.5°F15.8°C 62% 2.0 mph SW3.2 kmh SW 5.0 mph8.0 kmh 30.07 in1018.3 mb 0.00 in0.0 mm 0.00 in/hr0.0 mm/hr 5.70 in144.8 mm
02:22 PM 74.4°F23.6°C 59.1°F15.1°C 59% 2.0 mph SW3.2 kmh SW 5.0 mph8.0 kmh 30.07 in1018.3 mb 0.00 in0.0 mm 0.00 in/hr0.0 mm/hr 5.70 in144.8 mm
02:21 PM 74.5°F23.6°C 57.3°F14.1°C 55% 2.0 mph SW3.2 kmh SW 5.0 mph8.0 kmh 30.07 in1018.3 mb 0.00 in0.0 mm 0.00 in/hr0.0 mm/hr 5.70 in144.8 mm
02:20 PM 74.5°F23.6°C 58.8°F14.9°C 58% 2.0 mph SW3.2 kmh SW 5.0 mph8.0 kmh 30.07 in1018.3 mb 0.00 in0.0 mm 0.00 in/hr0.0 mm/hr 5.70 in144.8 mm
02:19 PM 74.4°F23.6°C 58.7°F14.8°C 58% 2.0 mph SW3.2 kmh SW 5.0 mph8.0 kmh 30.07 in1018.3 mb 0.00 in0.0 mm 0.00 in/hr0.0 mm/hr 5.70 in144.8 mm
02:18 PM 74.4°F23.6°C 58.2°F14.6°C 57% 3.0 mph SW4.8 kmh SW 5.0 mph8.0 kmh 30.07 in1018.3 mb 0.00 in0.0 mm 0.00 in/hr0.0 mm/hr 5.70 in144.8 mm
02:17 PM 74.4°F23.6°C 59.1°F15.1°C 59% 3.0 mph WSW4.8 kmh WSW 5.0 mph8.0 kmh 30.07 in1018.3 mb 0.00 in0.0 mm 0.00 in/hr0.0 mm/hr 5.70 in144.8 mm
02:16 PM 74.4°F23.6°C 61.0°F16.1°C 63% 3.0 mph WSW4.8 kmh WSW 5.0 mph8.0 kmh 30.07 in1018.3 mb 0.00 in0.0 mm 0.00 in/hr0.0 mm/hr 5.70 in144.8 mm
02:15 PM 74.4°F23.6°C 59.6°F15.3°C 60% 3.0 mph WSW4.8 kmh WSW 6.0 mph9.7 kmh 30.07 in1018.3 mb 0.00 in0.0 mm 0.00 in/hr0.0 mm/hr 5.70 in144.8 mm
02:14 PM 74.5°F23.6°C 59.2°F15.1°C 59% 4.0 mph WSW6.4 kmh WSW 6.0 mph9.7 kmh 30.07 in1018.3 mb 0.00 in0.0 mm 0.00 in/hr0.0 mm/hr 5.70 in144.8 mm
02:13 PM 74.5°F23.6°C 58.3°F14.6°C 57% 4.0 mph WSW6.4 kmh WSW 6.0 mph9.7 kmh 30.07 in1018.3 mb 0.00 in0.0 mm 0.00 in/hr0.0 mm/hr 5.70 in144.8 mm
02:12 PM 74.7°F23.7°C 59.9°F15.5°C 60% 4.0 mph WSW6.4 kmh WSW 8.0 mph12.9 kmh 30.07 in1018.3 mb 0.00 in0.0 mm 0.00 in/hr0.0 mm/hr 5.70 in144.8 mm
02:11 PM 74.7°F23.7°C 59.9°F15.5°C 60% 4.0 mph WSW6.4 kmh WSW 8.0 mph12.9 kmh 30.07 in1018.3 mb 0.00 in0.0 mm 0.00 in/hr0.0 mm/hr 5.70 in144.8 mm
02:10 PM 74.5°F23.6°C 59.2°F15.1°C 59% 4.0 mph WSW6.4 kmh WSW 9.0 mph14.5 kmh 30.07 in1018.3 mb 0.00 in0.0 mm 0.00 in/hr0.0 mm/hr 5.70 in144.8 mm
02:09 PM 74.2°F23.4°C 60.3°F15.7°C 62% 4.0 mph WSW6.4 kmh WSW 9.0 mph14.5 kmh 30.07 in1018.3 mb 0.00 in0.0 mm 0.00 in/hr0.0 mm/hr 5.70 in144.8 mm
02:08 PM 74.0°F23.3°C 60.6°F15.9°C 63% 3.0 mph WSW4.8 kmh WSW 9.0 mph14.5 kmh 30.07 in1018.3 mb 0.00 in0.0 mm 0.00 in/hr0.0 mm/hr 5.70 in144.8 mm
02:07 PM 73.9°F23.3°C 58.7°F14.8°C 59% 3.0 mph WSW4.8 kmh WSW 9.0 mph14.5 kmh 30.07 in1018.3 mb 0.00 in0.0 mm 0.00 in/hr0.0 mm/hr 5.70 in144.8 mm
02:06 PM 73.9°F23.3°C 59.1°F15.1°C 60% 3.0 mph WSW4.8 kmh WSW 9.0 mph14.5 kmh 30.07 in1018.3 mb 0.00 in0.0 mm 0.00 in/hr0.0 mm/hr 5.70 in144.8 mm
02:05 PM 73.9°F23.3°C 58.2°F14.6°C 58% 3.0 mph WSW4.8 kmh WSW 9.0 mph14.5 kmh 30.07 in1018.3 mb 0.00 in0.0 mm 0.00 in/hr0.0 mm/hr 5.70 in144.8 mm
02:04 PM 73.8°F23.2°C 60.0°F15.6°C 62% 3.0 mph WSW4.8 kmh WSW 9.0 mph14.5 kmh 30.07 in1018.3 mb 0.00 in0.0 mm 0.00 in/hr0.0 mm/hr 5.70 in144.8 mm
02:03 PM 73.7°F23.2°C 58.5°F14.7°C 59% 3.0 mph WSW4.8 kmh WSW 9.0 mph14.5 kmh 30.07 in1018.3 mb 0.00 in0.0 mm 0.00 in/hr0.0 mm/hr 5.70 in144.8 mm
02:02 PM 73.7°F23.2°C 58.9°F14.9°C 60% 3.0 mph WSW4.8 kmh WSW 9.0 mph14.5 kmh 30.08 in1018.6 mb 0.00 in0.0 mm 0.00 in/hr0.0 mm/hr 5.70 in144.8 mm
02:01 PM 73.9°F23.3°C 59.1°F15.1°C 60% 3.0 mph WSW4.8 kmh WSW 9.0 mph14.5 kmh 30.08 in1018.6 mb 0.00 in0.0 mm 0.00 in/hr0.0 mm/hr 5.70 in144.8 mm
02:00 PM 74.0°F23.3°C 59.2°F15.1°C 60% 3.0 mph WSW4.8 kmh WSW 8.0 mph12.9 kmh 30.08 in1018.6 mb 0.00 in0.0 mm 0.00 in/hr0.0 mm/hr 5.70 in144.8 mm
01:59 PM 74.0°F23.3°C 59.7°F15.4°C 61% 3.0 mph WSW4.8 kmh WSW 7.0 mph11.3 kmh 30.08 in1018.6 mb 0.00 in0.0 mm 0.00 in/hr0.0 mm/hr 5.70 in144.8 mm
01:58 PM 74.0°F23.3°C 59.2°F15.1°C 60% 3.0 mph WSW4.8 kmh WSW 7.0 mph11.3 kmh 30.08 in1018.6 mb 0.00 in0.0 mm 0.00 in/hr0.0 mm/hr 5.70 in144.8 mm
01:57 PM 74.1°F23.4°C 58.4°F14.7°C 58% 3.0 mph WSW4.8 kmh WSW 6.0 mph9.7 kmh 30.08 in1018.6 mb 0.00 in0.0 mm 0.00 in/hr0.0 mm/hr 5.70 in144.8 mm
01:56 PM 74.2°F23.4°C 58.5°F14.7°C 58% 4.0 mph WSW6.4 kmh WSW 6.0 mph9.7 kmh 30.08 in1018.6 mb 0.00 in0.0 mm 0.00 in/hr0.0 mm/hr 5.70 in144.8 mm
01:55 PM 74.2°F23.4°C 57.0°F13.9°C 55% 4.0 mph WSW6.4 kmh WSW 7.0 mph11.3 kmh 30.07 in1018.3 mb 0.00 in0.0 mm 0.00 in/hr0.0 mm/hr 5.70 in144.8 mm
01:54 PM 74.2°F23.4°C 57.0°F13.9°C 55% 4.0 mph WSW6.4 kmh WSW 8.0 mph12.9 kmh 30.07 in1018.3 mb 0.00 in0.0 mm 0.00 in/hr0.0 mm/hr 5.70 in144.8 mm
01:53 PM 74.4°F23.6°C 57.2°F14.0°C 55% 4.0 mph WSW6.4 kmh WSW 9.0 mph14.5 kmh 30.07 in1018.3 mb 0.00 in0.0 mm 0.00 in/hr0.0 mm/hr 5.70 in144.8 mm
01:52 PM 74.5°F23.6°C 57.3°F14.1°C 55% 4.0 mph WSW6.4 kmh WSW 9.0 mph14.5 kmh 30.08 in1018.6 mb 0.00 in0.0 mm 0.00 in/hr0.0 mm/hr 5.70 in144.8 mm
01:51 PM 74.5°F23.6°C 57.3°F14.1°C 55% 4.0 mph WSW6.4 kmh WSW 9.0 mph14.5 kmh 30.07 in1018.3 mb 0.00 in0.0 mm 0.00 in/hr0.0 mm/hr 5.70 in144.8 mm
01:50 PM 74.4°F23.6°C 57.2°F14.0°C 55% 4.0 mph WSW6.4 kmh WSW 9.0 mph14.5 kmh 30.07 in1018.3 mb 5.70 in144.8 mm 0.00 in/hr0.0 mm/hr 5.70 in144.8 mm
01:49 PM 74.3°F23.5°C 58.6°F14.8°C 58% 4.0 mph WSW6.4 kmh WSW 9.0 mph14.5 kmh 30.07 in1018.3 mb 5.70 in144.8 mm 0.00 in/hr0.0 mm/hr 5.70 in144.8 mm
01:48 PM 74.1°F23.4°C 56.9°F13.8°C 55% 4.0 mph SW6.4 kmh SW 9.0 mph14.5 kmh 30.07 in1018.3 mb 5.70 in144.8 mm 0.00 in/hr0.0 mm/hr 5.70 in144.8 mm
01:47 PM 74.1°F23.4°C 57.4°F14.1°C 56% 3.0 mph SW4.8 kmh SW 9.0 mph14.5 kmh 30.07 in1018.3 mb 5.70 in144.8 mm 0.00 in/hr0.0 mm/hr 5.70 in144.8 mm
01:46 PM 74.1°F23.4°C 57.9°F14.4°C 57% 3.0 mph SW4.8 kmh SW 9.0 mph14.5 kmh 30.07 in1018.3 mb 5.70 in144.8 mm 0.00 in/hr0.0 mm/hr 5.70 in144.8 mm
01:45 PM 74.3°F23.5°C 57.6°F14.2°C 56% 2.0 mph SW3.2 kmh SW 9.0 mph14.5 kmh 30.07 in1018.3 mb 5.70 in144.8 mm 0.00 in/hr0.0 mm/hr 5.70 in144.8 mm
01:44 PM 74.5°F23.6°C 57.8°F14.3°C 56% 2.0 mph SW3.2 kmh SW 9.0 mph14.5 kmh 30.07 in1018.3 mb 5.70 in144.8 mm 0.00 in/hr0.0 mm/hr 5.70 in144.8 mm
01:43 PM 74.6°F23.7°C 59.8°F15.4°C 60% 2.0 mph SW3.2 kmh SW 8.0 mph12.9 kmh 30.07 in1018.3 mb 5.70 in144.8 mm 0.00 in/hr0.0 mm/hr 5.70 in144.8 mm
01:42 PM 74.5°F23.6°C 58.3°F14.6°C 57% 2.0 mph SW3.2 kmh SW 7.0 mph11.3 kmh 30.07 in1018.3 mb 5.70 in144.8 mm 0.00 in/hr0.0 mm/hr 5.70 in144.8 mm
01:41 PM 74.3°F23.5°C 58.1°F14.5°C 57% 1.0 mph SW1.6 kmh SW 7.0 mph11.3 kmh 30.07 in1018.3 mb 5.70 in144.8 mm 0.00 in/hr0.0 mm/hr 5.70 in144.8 mm
01:40 PM 74.3°F23.5°C 60.0°F15.6°C 61% 1.0 mph SW1.6 kmh SW 7.0 mph11.3 kmh 30.07 in1018.3 mb 5.70 in144.8 mm 0.00 in/hr0.0 mm/hr 5.70 in144.8 mm
01:39 PM 74.3°F23.5°C 60.4°F15.8°C 62% 1.0 mph SW1.6 kmh SW 7.0 mph11.3 kmh 30.07 in1018.3 mb 5.70 in144.8 mm 0.00 in/hr0.0 mm/hr 5.70 in144.8 mm
01:38 PM 74.3°F23.5°C 60.0°F15.6°C 61% 2.0 mph SW3.2 kmh SW 6.0 mph9.7 kmh 30.07 in1018.3 mb 5.70 in144.8 mm 0.00 in/hr0.0 mm/hr 5.70 in144.8 mm
01:37 PM 74.2°F23.4°C 59.4°F15.2°C 60% 2.0 mph SW3.2 kmh SW 6.0 mph9.7 kmh 30.07 in1018.3 mb 5.70 in144.8 mm 0.00 in/hr0.0 mm/hr 5.70 in144.8 mm
01:36 PM 74.0°F23.3°C 59.2°F15.1°C 60% 2.0 mph WSW3.2 kmh WSW 6.0 mph9.7 kmh 30.07 in1018.3 mb 5.70 in144.8 mm 0.00 in/hr0.0 mm/hr 5.70 in144.8 mm
01:35 PM 74.0°F23.3°C 58.3°F14.6°C 58% 2.0 mph WSW3.2 kmh WSW 6.0 mph9.7 kmh 30.07 in1018.3 mb 5.70 in144.8 mm 0.00 in/hr0.0 mm/hr 5.70 in144.8 mm
01:34 PM 74.0°F23.3°C 58.3°F14.6°C 58% 3.0 mph WSW4.8 kmh WSW 5.0 mph8.0 kmh 30.07 in1018.3 mb 5.70 in144.8 mm 0.00 in/hr0.0 mm/hr 5.70 in144.8 mm
01:33 PM 73.8°F23.2°C 57.6°F14.2°C 57% 3.0 mph W4.8 kmh W 4.0 mph6.4 kmh 30.07 in1018.3 mb 5.70 in144.8 mm 0.00 in/hr0.0 mm/hr 5.70 in144.8 mm
01:32 PM 73.7°F23.2°C 59.4°F15.2°C 61% 3.0 mph WSW4.8 kmh WSW 7.0 mph11.3 kmh 30.07 in1018.3 mb 5.70 in144.8 mm 0.00 in/hr0.0 mm/hr 5.70 in144.8 mm
01:31 PM 73.5°F23.1°C 57.8°F14.3°C 58% 3.0 mph WSW4.8 kmh WSW 7.0 mph11.3 kmh 30.07 in1018.3 mb 5.70 in144.8 mm 0.00 in/hr0.0 mm/hr 5.70 in144.8 mm
01:30 PM 73.2°F22.9°C 58.0°F14.4°C 59% 3.0 mph WSW4.8 kmh WSW 7.0 mph11.3 kmh 30.07 in1018.3 mb 5.70 in144.8 mm 0.00 in/hr0.0 mm/hr 5.70 in144.8 mm
01:29 PM 72.9°F22.7°C 58.7°F14.8°C 61% 4.0 mph WSW6.4 kmh WSW 7.0 mph11.3 kmh 30.07 in1018.3 mb 5.70 in144.8 mm 0.00 in/hr0.0 mm/hr 5.70 in144.8 mm
01:28 PM 72.7°F22.6°C 59.8°F15.4°C 64% 4.0 mph WSW6.4 kmh WSW 7.0 mph11.3 kmh 30.07 in1018.3 mb 5.70 in144.8 mm 0.00 in/hr0.0 mm/hr 5.70 in144.8 mm
01:27 PM 72.4°F22.4°C 59.1°F15.1°C 63% 4.0 mph WSW6.4 kmh WSW 8.0 mph12.9 kmh 30.07 in1018.3 mb 5.70 in144.8 mm 0.00 in/hr0.0 mm/hr 5.70 in144.8 mm
01:26 PM 72.1°F22.3°C 57.0°F13.9°C 59% 3.0 mph WSW4.8 kmh WSW 8.0 mph12.9 kmh 30.08 in1018.6 mb 5.70 in144.8 mm 0.00 in/hr0.0 mm/hr 5.70 in144.8 mm
01:25 PM 72.0°F22.2°C 56.9°F13.8°C 59% 3.0 mph WSW4.8 kmh WSW 8.0 mph12.9 kmh 30.08 in1018.6 mb 5.70 in144.8 mm 0.00 in/hr0.0 mm/hr 5.70 in144.8 mm
01:24 PM 72.0°F22.2°C 55.9°F13.3°C 57% 3.0 mph SW4.8 kmh SW 8.0 mph12.9 kmh 30.08 in1018.6 mb 5.70 in144.8 mm 0.00 in/hr0.0 mm/hr 5.70 in144.8 mm
01:23 PM 72.1°F22.3°C 56.5°F13.6°C 58% 3.0 mph SW4.8 kmh SW 8.0 mph12.9 kmh 30.08 in1018.6 mb 5.70 in144.8 mm 0.00 in/hr0.0 mm/hr 5.70 in144.8 mm
01:22 PM 72.2°F22.3°C 56.6°F13.7°C 58% 3.0 mph SW4.8 kmh SW 8.0 mph12.9 kmh 30.08 in1018.6 mb 5.70 in144.8 mm 0.00 in/hr0.0 mm/hr 5.70 in144.8 mm
01:21 PM 72.4°F22.4°C 56.8°F13.8°C 58% 3.0 mph SW4.8 kmh SW 8.0 mph12.9 kmh 30.08 in1018.6 mb 5.70 in144.8 mm 0.00 in/hr0.0 mm/hr 5.70 in144.8 mm
01:20 PM 72.6°F22.6°C 57.4°F14.1°C 59% 3.0 mph SW4.8 kmh SW 8.0 mph12.9 kmh 30.08 in1018.6 mb 5.70 in144.8 mm 0.00 in/hr0.0 mm/hr 5.70 in144.8 mm
01:19 PM 72.8°F22.7°C 57.2°F14.0°C 58% 3.0 mph SW4.8 kmh SW 8.0 mph12.9 kmh 30.08 in1018.6 mb 5.70 in144.8 mm 0.00 in/hr0.0 mm/hr 5.70 in144.8 mm
01:18 PM 73.0°F22.8°C 57.8°F14.3°C 59% 3.0 mph SW4.8 kmh SW 8.0 mph12.9 kmh 30.08 in1018.6 mb 5.70 in144.8 mm 0.00 in/hr0.0 mm/hr 5.70 in144.8 mm
01:17 PM 73.3°F22.9°C 59.0°F15.0°C 61% 3.0 mph SW4.8 kmh SW 8.0 mph12.9 kmh 30.09 in1019.0 mb 5.70 in144.8 mm 0.00 in/hr0.0 mm/hr 5.70 in144.8 mm
01:16 PM 73.5°F23.1°C 57.8°F14.3°C 58% 3.0 mph SW4.8 kmh SW 7.0 mph11.3 kmh 30.09 in1019.0 mb 5.70 in144.8 mm 0.00 in/hr0.0 mm/hr 5.70 in144.8 mm
01:15 PM 73.8°F23.2°C 58.6°F14.8°C 59% 3.0 mph SW4.8 kmh SW 6.0 mph9.7 kmh 30.09 in1019.0 mb 5.70 in144.8 mm 0.00 in/hr0.0 mm/hr 5.70 in144.8 mm
01:14 PM 74.0°F23.3°C 57.3°F14.1°C 56% 3.0 mph SW4.8 kmh SW 6.0 mph9.7 kmh 30.09 in1019.0 mb 5.70 in144.8 mm 0.00 in/hr0.0 mm/hr 5.70 in144.8 mm
01:13 PM 74.0°F23.3°C 57.3°F14.1°C 56% 3.0 mph SW4.8 kmh SW 6.0 mph9.7 kmh 30.09 in1019.0 mb 5.70 in144.8 mm 0.00 in/hr0.0 mm/hr 5.70 in144.8 mm
01:12 PM 74.0°F23.3°C 57.8°F14.3°C 57% 3.0 mph SW4.8 kmh SW 6.0 mph9.7 kmh 30.09 in1019.0 mb 5.70 in144.8 mm 0.00 in/hr0.0 mm/hr 5.70 in144.8 mm
01:11 PM 73.9°F23.3°C 59.1°F15.1°C 60% 3.0 mph SW4.8 kmh SW 9.0 mph14.5 kmh 30.09 in1019.0 mb 5.70 in144.8 mm 0.00 in/hr0.0 mm/hr 5.70 in144.8 mm
01:10 PM 73.7°F23.2°C 58.9°F14.9°C 60% 3.0 mph WSW4.8 kmh WSW 9.0 mph14.5 kmh 30.09 in1019.0 mb 5.70 in144.8 mm 0.00 in/hr0.0 mm/hr 5.70 in144.8 mm
01:09 PM 73.5°F23.1°C 57.8°F14.3°C 58% 3.0 mph WSW4.8 kmh WSW 9.0 mph14.5 kmh 30.09 in1019.0 mb 5.70 in144.8 mm 0.00 in/hr0.0 mm/hr 5.70 in144.8 mm
01:08 PM 73.5°F23.1°C 58.3°F14.6°C 59% 3.0 mph WSW4.8 kmh WSW 9.0 mph14.5 kmh 30.09 in1019.0 mb 5.70 in144.8 mm 0.00 in/hr0.0 mm/hr 5.70 in144.8 mm
01:07 PM 73.3°F22.9°C 58.1°F14.5°C 59% 4.0 mph WSW6.4 kmh WSW 9.0 mph14.5 kmh 30.09 in1019.0 mb 5.70 in144.8 mm 0.00 in/hr0.0 mm/hr 5.70 in144.8 mm
01:06 PM 73.1°F22.8°C 58.8°F14.9°C 61% 4.0 mph WSW6.4 kmh WSW 9.0 mph14.5 kmh 30.09 in1019.0 mb 5.70 in144.8 mm 0.00 in/hr0.0 mm/hr 5.70 in144.8 mm
01:05 PM 72.9°F22.7°C 59.1°F15.1°C 62% 4.0 mph WSW6.4 kmh WSW 9.0 mph14.5 kmh 30.09 in1019.0 mb 5.70 in144.8 mm 0.00 in/hr0.0 mm/hr 5.70 in144.8 mm
01:04 PM 72.7°F22.6°C 56.6°F13.7°C 57% 4.0 mph WSW6.4 kmh WSW 9.0 mph14.5 kmh 30.09 in1019.0 mb 5.70 in144.8 mm 0.00 in/hr0.0 mm/hr 5.70 in144.8 mm
01:03 PM 72.7°F22.6°C 56.6°F13.7°C 57% 4.0 mph WSW6.4 kmh WSW 9.0 mph14.5 kmh 30.10 in1019.3 mb 5.70 in144.8 mm 0.00 in/hr0.0 mm/hr 5.70 in144.8 mm
01:02 PM 72.8°F22.7°C 56.7°F13.7°C 57% 4.0 mph WSW6.4 kmh WSW 9.0 mph14.5 kmh 30.09 in1019.0 mb 5.70 in144.8 mm 0.00 in/hr0.0 mm/hr 5.70 in144.8 mm
01:01 PM 73.0°F22.8°C 58.8°F14.9°C 61% 4.0 mph WSW6.4 kmh WSW 7.0 mph11.3 kmh 30.10 in1019.3 mb 5.70 in144.8 mm 0.00 in/hr0.0 mm/hr 5.70 in144.8 mm
01:00 PM 72.9°F22.7°C 59.6°F15.3°C 63% 4.0 mph SW6.4 kmh SW 6.0 mph9.7 kmh 30.09 in1019.0 mb 5.70 in144.8 mm 0.00 in/hr0.0 mm/hr 5.70 in144.8 mm
12:59 PM 72.7°F22.6°C 59.8°F15.4°C 64% 4.0 mph SW6.4 kmh SW 8.0 mph12.9 kmh 30.09 in1019.0 mb 5.70 in144.8 mm 342.00 in/hr8686.8 mm/hr 5.70 in144.8 mm
12:58 PM 72.2°F22.3°C 58.5°F14.7°C 62% 2.0 mph WSW3.2 kmh WSW 5.0 mph8.0 kmh 30.11 in1019.6 mb 0.00 in0.0 mm 0.00 in/hr0.0 mm/hr 5.70 in144.8 mm
12:57 PM 72.8°F22.7°C 56.2°F13.4°C 56% 4.0 mph SW6.4 kmh SW 8.0 mph12.9 kmh 30.09 in1019.0 mb 5.70 in144.8 mm 342.00 in/hr8686.8 mm/hr 5.70 in144.8 mm
12:56 PM 66.7°F19.3°C 62.0°F16.7°C 85% Calm Calm 2.0 mph3.2 kmh 30.13 in1020.3 mb 0.00 in0.0 mm 0.00 in/hr0.0 mm/hr 0.00 in0.0 mm
12:55 PM 65.4°F18.6°C 61.4°F16.3°C 87% Calm Calm 1.0 mph1.6 kmh 30.13 in1020.3 mb 0.00 in0.0 mm 0.00 in/hr0.0 mm/hr 0.00 in0.0 mm
12:51 PM 73.5°F23.1°C 57.8°F14.3°C 58% 2.0 mph SW3.2 kmh SW 8.0 mph12.9 kmh 30.10 in1019.3 mb 0.00 in0.0 mm 0.00 in/hr0.0 mm/hr 0.00 in0.0 mm
12:50 PM 73.6°F23.1°C 57.4°F14.1°C 57% 2.0 mph SW3.2 kmh SW 8.0 mph12.9 kmh 30.10 in1019.3 mb 0.00 in0.0 mm 0.00 in/hr0.0 mm/hr 0.00 in0.0 mm
12:49 PM 73.8°F23.2°C 59.5°F15.3°C 61% 2.0 mph SW3.2 kmh SW 8.0 mph12.9 kmh 30.10 in1019.3 mb 0.00 in0.0 mm 0.00 in/hr0.0 mm/hr 0.00 in0.0 mm
12:48 PM 73.8°F23.2°C 59.5°F15.3°C 61% 2.0 mph SW3.2 kmh SW 6.0 mph9.7 kmh 30.10 in1019.3 mb 0.00 in0.0 mm 0.00 in/hr0.0 mm/hr 0.00 in0.0 mm
12:47 PM 73.7°F23.2°C 60.3°F15.7°C 63% 2.0 mph SW3.2 kmh SW 8.0 mph12.9 kmh 30.10 in1019.3 mb 0.00 in0.0 mm 0.00 in/hr0.0 mm/hr 0.00 in0.0 mm
12:46 PM 73.4°F23.0°C 58.2°F14.6°C 59% 2.0 mph SW3.2 kmh SW 8.0 mph12.9 kmh 30.10 in1019.3 mb 0.00 in0.0 mm 0.00 in/hr0.0 mm/hr 0.00 in0.0 mm
12:45 PM 73.3°F22.9°C 61.7°F16.5°C 67% 2.0 mph SW3.2 kmh SW 8.0 mph12.9 kmh 30.10 in1019.3 mb 0.00 in0.0 mm 0.00 in/hr0.0 mm/hr 0.00 in0.0 mm
12:44 PM 73.0°F22.8°C 61.4°F16.3°C 67% 2.0 mph SW3.2 kmh SW 8.0 mph12.9 kmh 30.10 in1019.3 mb 0.00 in0.0 mm 0.00 in/hr0.0 mm/hr 0.00 in0.0 mm
09:55 AM 63.5°F17.5°C 60.2°F15.7°C 89% Calm Calm 1.0 mph1.6 kmh 30.14 in1020.7 mb 0.00 in0.0 mm 0.00 in/hr0.0 mm/hr 0.00 in0.0 mm
09:54 AM 63.5°F17.5°C 60.2°F15.7°C 89% Calm Calm 1.0 mph1.6 kmh 30.14 in1020.7 mb 0.00 in0.0 mm 0.00 in/hr0.0 mm/hr 0.00 in0.0 mm
09:53 AM 63.5°F17.5°C 60.2°F15.7°C 89% Calm Calm 1.0 mph1.6 kmh 30.14 in1020.7 mb 0.00 in0.0 mm 0.00 in/hr0.0 mm/hr 0.00 in0.0 mm
09:52 AM 63.5°F17.5°C 60.2°F15.7°C 89% Calm Calm 1.0 mph1.6 kmh 30.14 in1020.7 mb 0.00 in0.0 mm 0.00 in/hr0.0 mm/hr 0.00 in0.0 mm
09:51 AM 63.5°F17.5°C 60.2°F15.7°C 89% Calm Calm 1.0 mph1.6 kmh 30.14 in1020.7 mb 0.00 in0.0 mm 0.00 in/hr0.0 mm/hr 0.00 in0.0 mm
09:50 AM 63.5°F17.5°C 60.2°F15.7°C 89% Calm Calm 1.0 mph1.6 kmh 30.12 in1020.0 mb 0.00 in0.0 mm 0.00 in/hr0.0 mm/hr 0.00 in0.0 mm
09:49 AM 63.5°F17.5°C 60.2°F15.7°C 89% Calm Calm 1.0 mph1.6 kmh 30.12 in1020.0 mb 0.00 in0.0 mm 0.00 in/hr0.0 mm/hr 0.00 in0.0 mm
09:48 AM 63.5°F17.5°C 60.2°F15.7°C 89% Calm Calm 1.0 mph1.6 kmh 30.13 in1020.3 mb 0.00 in0.0 mm 0.00 in/hr0.0 mm/hr 0.00 in0.0 mm
09:47 AM 63.4°F17.4°C 60.4°F15.8°C 90% Calm Calm 1.0 mph1.6 kmh 30.13 in1020.3 mb 0.00 in0.0 mm 0.00 in/hr0.0 mm/hr 0.00 in0.0 mm
09:46 AM 63.2°F17.3°C 60.5°F15.8°C 91% Calm Calm 1.0 mph1.6 kmh 30.13 in1020.3 mb 0.00 in0.0 mm 0.00 in/hr0.0 mm/hr 0.00 in0.0 mm
09:45 AM 63.1°F17.3°C 60.1°F15.6°C 90% Calm Calm 2.0 mph3.2 kmh 30.12 in1020.0 mb 0.00 in0.0 mm 0.00 in/hr0.0 mm/hr 0.00 in0.0 mm
09:43 AM 62.8°F17.1°C 60.1°F15.6°C 91% Calm Calm 2.0 mph3.2 kmh 30.12 in1020.0 mb 0.00 in0.0 mm 0.00 in/hr0.0 mm/hr 0.00 in0.0 mm
09:42 AM 62.7°F17.1°C 59.7°F15.4°C 90% Calm Calm 2.0 mph3.2 kmh 30.12 in1020.0 mb 0.00 in0.0 mm 0.00 in/hr0.0 mm/hr 0.00 in0.0 mm
09:41 AM 62.7°F17.1°C 59.7°F15.4°C 90% Calm Calm 2.0 mph3.2 kmh 30.12 in1020.0 mb 0.00 in0.0 mm 0.00 in/hr0.0 mm/hr 0.00 in0.0 mm
09:40 AM 62.7°F17.1°C 59.7°F15.4°C 90% Calm Calm 2.0 mph3.2 kmh 30.12 in1020.0 mb 0.00 in0.0 mm 0.00 in/hr0.0 mm/hr 0.00 in0.0 mm
09:38 AM 62.7°F17.1°C 60.0°F15.6°C 91% Calm Calm 2.0 mph3.2 kmh 30.12 in1020.0 mb 0.00 in0.0 mm 0.00 in/hr0.0 mm/hr 0.00 in0.0 mm
09:37 AM 62.7°F17.1°C 60.6°F15.9°C 93% Calm Calm 2.0 mph3.2 kmh 30.12 in1020.0 mb 0.00 in0.0 mm 0.00 in/hr0.0 mm/hr 0.00 in0.0 mm
09:36 AM 62.6°F17.0°C 60.2°F15.7°C 92% Calm Calm 2.0 mph3.2 kmh 30.12 in1020.0 mb 0.00 in0.0 mm 0.00 in/hr0.0 mm/hr 0.00 in0.0 mm
09:35 AM 62.5°F16.9°C 59.8°F15.4°C 91% Calm Calm 2.0 mph3.2 kmh 30.12 in1020.0 mb 0.00 in0.0 mm 0.00 in/hr0.0 mm/hr 0.00 in0.0 mm
09:34 AM 62.4°F16.9°C 60.0°F15.6°C 92% Calm Calm 2.0 mph3.2 kmh 30.12 in1020.0 mb 0.00 in0.0 mm 0.00 in/hr0.0 mm/hr 0.00 in0.0 mm
09:33 AM 62.3°F16.8°C 59.9°F15.5°C 92% Calm Calm 1.0 mph1.6 kmh 30.12 in1020.0 mb 0.00 in0.0 mm 0.00 in/hr0.0 mm/hr 0.00 in0.0 mm
09:32 AM 62.2°F16.8°C 59.8°F15.4°C 92% Calm Calm -- 30.12 in1020.0 mb 0.00 in0.0 mm 0.00 in/hr0.0 mm/hr 0.00 in0.0 mm
09:31 AM 62.0°F16.7°C 60.0°F15.6°C 93% Calm Calm -- 30.12 in1020.0 mb 0.00 in0.0 mm 0.00 in/hr0.0 mm/hr 0.00 in0.0 mm
09:30 AM 61.8°F16.6°C 59.8°F15.4°C 93% Calm Calm 1.0 mph1.6 kmh 30.12 in1020.0 mb 0.00 in0.0 mm 0.00 in/hr0.0 mm/hr 0.00 in0.0 mm
09:29 AM 61.6°F16.4°C 59.6°F15.3°C 93% Calm Calm 1.0 mph1.6 kmh 30.12 in1020.0 mb 0.00 in0.0 mm 0.00 in/hr0.0 mm/hr 0.00 in0.0 mm
09:28 AM 61.4°F16.3°C 59.4°F15.2°C 93% Calm Calm 1.0 mph1.6 kmh 30.12 in1020.0 mb 0.00 in0.0 mm 0.00 in/hr0.0 mm/hr 0.00 in0.0 mm
09:27 AM 61.3°F16.3°C 59.6°F15.3°C 94% Calm Calm 1.0 mph1.6 kmh 30.12 in1020.0 mb 0.00 in0.0 mm 0.00 in/hr0.0 mm/hr 0.00 in0.0 mm
09:26 AM 61.2°F16.2°C 59.5°F15.3°C 94% Calm Calm 1.0 mph1.6 kmh 30.12 in1020.0 mb 0.00 in0.0 mm 0.00 in/hr0.0 mm/hr 0.00 in0.0 mm
09:25 AM 61.1°F16.2°C 59.4°F15.2°C 94% 1.0 mph WSW1.6 kmh WSW 1.0 mph1.6 kmh 30.12 in1020.0 mb 0.00 in0.0 mm 0.00 in/hr0.0 mm/hr 0.00 in0.0 mm
09:24 AM 61.0°F16.1°C 59.3°F15.2°C 94% 1.0 mph WSW1.6 kmh WSW 1.0 mph1.6 kmh 30.12 in1020.0 mb 0.00 in0.0 mm 0.00 in/hr0.0 mm/hr 0.00 in0.0 mm
09:23 AM 60.9°F16.1°C 59.2°F15.1°C 94% 1.0 mph WSW1.6 kmh WSW 1.0 mph1.6 kmh 30.12 in1020.0 mb 0.00 in0.0 mm 0.00 in/hr0.0 mm/hr 0.00 in0.0 mm
09:22 AM 60.9°F16.1°C 59.2°F15.1°C 94% 1.0 mph WSW1.6 kmh WSW 1.0 mph1.6 kmh 30.13 in1020.3 mb 0.00 in0.0 mm 0.00 in/hr0.0 mm/hr 0.00 in0.0 mm
09:21 AM 60.8°F16.0°C 59.1°F15.1°C 94% 1.0 mph SW1.6 kmh SW 2.0 mph3.2 kmh 30.13 in1020.3 mb 0.00 in0.0 mm 0.00 in/hr0.0 mm/hr 0.00 in0.0 mm
09:20 AM 60.8°F16.0°C 59.1°F15.1°C 94% 1.0 mph SW1.6 kmh SW 2.0 mph3.2 kmh 30.13 in1020.3 mb 0.00 in0.0 mm 0.00 in/hr0.0 mm/hr 0.00 in0.0 mm
09:19 AM 60.7°F15.9°C 59.0°F15.0°C 94% 1.0 mph SW1.6 kmh SW 2.0 mph3.2 kmh 30.13 in1020.3 mb 0.00 in0.0 mm 0.00 in/hr0.0 mm/hr 0.00 in0.0 mm
09:18 AM 60.7°F15.9°C 59.3°F15.2°C 95% 1.0 mph SW1.6 kmh SW 2.0 mph3.2 kmh 30.13 in1020.3 mb 0.00 in0.0 mm 0.00 in/hr0.0 mm/hr 0.00 in0.0 mm
09:17 AM 60.6°F15.9°C 59.5°F15.3°C 96% 1.0 mph SW1.6 kmh SW 2.0 mph3.2 kmh 30.13 in1020.3 mb 0.00 in0.0 mm 0.00 in/hr0.0 mm/hr 0.00 in0.0 mm
09:16 AM 60.5°F15.8°C 59.1°F15.1°C 95% 1.0 mph SW1.6 kmh SW 2.0 mph3.2 kmh 30.13 in1020.3 mb 0.00 in0.0 mm 0.00 in/hr0.0 mm/hr 0.00 in0.0 mm
09:15 AM 60.5°F15.8°C 59.1°F15.1°C 95% 1.0 mph SW1.6 kmh SW 2.0 mph3.2 kmh 30.13 in1020.3 mb 0.00 in0.0 mm 0.00 in/hr0.0 mm/hr 0.00 in0.0 mm
09:14 AM 60.4°F15.8°C 59.0°F15.0°C 95% 1.0 mph SW1.6 kmh SW 2.0 mph3.2 kmh 30.13 in1020.3 mb 0.00 in0.0 mm 0.00 in/hr0.0 mm/hr 0.00 in0.0 mm
09:13 AM 60.4°F15.8°C 59.3°F15.2°C 96% 1.0 mph SW1.6 kmh SW 2.0 mph3.2 kmh 30.13 in1020.3 mb 0.00 in0.0 mm 0.00 in/hr0.0 mm/hr 0.00 in0.0 mm
09:12 AM 60.3°F15.7°C 59.2°F15.1°C 96% 1.0 mph SW1.6 kmh SW 2.0 mph3.2 kmh 30.13 in1020.3 mb 0.00 in0.0 mm 0.00 in/hr0.0 mm/hr 0.00 in0.0 mm
09:10 AM 60.2°F15.7°C 59.1°F15.1°C 96% 1.0 mph WSW1.6 kmh WSW 3.0 mph4.8 kmh 30.13 in1020.3 mb 0.00 in0.0 mm 0.00 in/hr0.0 mm/hr 0.00 in0.0 mm
09:09 AM 60.1°F15.6°C 58.7°F14.8°C 95% 1.0 mph WSW1.6 kmh WSW 3.0 mph4.8 kmh 30.13 in1020.3 mb 0.00 in0.0 mm 0.00 in/hr0.0 mm/hr 0.00 in0.0 mm
09:08 AM 60.1°F15.6°C 58.7°F14.8°C 95% 1.0 mph WSW1.6 kmh WSW 3.0 mph4.8 kmh 30.13 in1020.3 mb 0.00 in0.0 mm 0.00 in/hr0.0 mm/hr 0.00 in0.0 mm
09:07 AM 60.1°F15.6°C 58.7°F14.8°C 95% 1.0 mph WSW1.6 kmh WSW 3.0 mph4.8 kmh 30.13 in1020.3 mb 0.00 in0.0 mm 0.00 in/hr0.0 mm/hr 0.00 in0.0 mm
09:06 AM 60.1°F15.6°C 58.7°F14.8°C 95% 1.0 mph WSW1.6 kmh WSW 3.0 mph4.8 kmh 30.13 in1020.3 mb 0.00 in0.0 mm 0.00 in/hr0.0 mm/hr 0.00 in0.0 mm
09:05 AM 60.1°F15.6°C 59.0°F15.0°C 96% 1.0 mph WSW1.6 kmh WSW 3.0 mph4.8 kmh 30.13 in1020.3 mb 0.00 in0.0 mm 0.00 in/hr0.0 mm/hr 0.00 in0.0 mm
09:04 AM 60.1°F15.6°C 59.0°F15.0°C 96% 1.0 mph WSW1.6 kmh WSW 3.0 mph4.8 kmh 30.12 in1020.0 mb 0.00 in0.0 mm 0.00 in/hr0.0 mm/hr 0.00 in0.0 mm
09:03 AM 60.1°F15.6°C 59.0°F15.0°C 96% 1.0 mph WSW1.6 kmh WSW 3.0 mph4.8 kmh 30.12 in1020.0 mb 0.00 in0.0 mm 0.00 in/hr0.0 mm/hr 0.00 in0.0 mm
09:02 AM 60.1°F15.6°C 59.0°F15.0°C 96% 1.0 mph WSW1.6 kmh WSW 3.0 mph4.8 kmh 30.12 in1020.0 mb 0.00 in0.0 mm 0.00 in/hr0.0 mm/hr 0.00 in0.0 mm
09:01 AM 60.0°F15.6°C 58.9°F14.9°C 96% 1.0 mph WSW1.6 kmh WSW 3.0 mph4.8 kmh 30.12 in1020.0 mb 0.00 in0.0 mm 0.00 in/hr0.0 mm/hr 0.00 in0.0 mm
09:00 AM 60.0°F15.6°C 58.6°F14.8°C 95% 1.0 mph WSW1.6 kmh WSW 3.0 mph4.8 kmh 30.12 in1020.0 mb 0.00 in0.0 mm 0.00 in/hr0.0 mm/hr 0.00 in0.0 mm
08:59 AM 60.1°F15.6°C 58.7°F14.8°C 95% 1.0 mph WSW1.6 kmh WSW 3.0 mph4.8 kmh 30.12 in1020.0 mb 0.00 in0.0 mm 0.00 in/hr0.0 mm/hr 0.00 in0.0 mm
08:58 AM 60.1°F15.6°C 58.7°F14.8°C 95% 1.0 mph SW1.6 kmh SW 3.0 mph4.8 kmh 30.12 in1020.0 mb 0.00 in0.0 mm 0.00 in/hr0.0 mm/hr 0.00 in0.0 mm
08:57 AM 60.2°F15.7°C 58.8°F14.9°C 95% 1.0 mph WSW1.6 kmh WSW 3.0 mph4.8 kmh 30.12 in1020.0 mb 0.00 in0.0 mm 0.00 in/hr0.0 mm/hr 0.00 in0.0 mm
08:56 AM 60.3°F15.7°C 58.9°F14.9°C 95% 1.0 mph WSW1.6 kmh WSW 3.0 mph4.8 kmh 30.12 in1020.0 mb 0.00 in0.0 mm 0.00 in/hr0.0 mm/hr 0.00 in0.0 mm
08:55 AM 60.3°F15.7°C 58.9°F14.9°C 95% 1.0 mph WSW1.6 kmh WSW 3.0 mph4.8 kmh 30.12 in1020.0 mb 0.00 in0.0 mm 0.00 in/hr0.0 mm/hr 0.00 in0.0 mm
08:54 AM 60.3°F15.7°C 59.2°F15.1°C 96% 1.0 mph WSW1.6 kmh WSW 3.0 mph4.8 kmh 30.12 in1020.0 mb 0.00 in0.0 mm 0.00 in/hr0.0 mm/hr 0.00 in0.0 mm
08:53 AM 60.3°F15.7°C 59.2°F15.1°C 96% 1.0 mph WSW1.6 kmh WSW 3.0 mph4.8 kmh 30.12 in1020.0 mb 0.00 in0.0 mm 0.00 in/hr0.0 mm/hr 0.00 in0.0 mm
08:52 AM 60.3°F15.7°C 59.2°F15.1°C 96% 1.0 mph SW1.6 kmh SW 3.0 mph4.8 kmh 30.12 in1020.0 mb 0.00 in0.0 mm 0.00 in/hr0.0 mm/hr 0.00 in0.0 mm
08:51 AM 60.3°F15.7°C 59.2°F15.1°C 96% 1.0 mph WSW1.6 kmh WSW 3.0 mph4.8 kmh 30.12 in1020.0 mb 0.00 in0.0 mm 0.00 in/hr0.0 mm/hr 0.00 in0.0 mm
08:50 AM 60.3°F15.7°C 59.2°F15.1°C 96% 1.0 mph WSW1.6 kmh WSW 3.0 mph4.8 kmh 30.12 in1020.0 mb 0.00 in0.0 mm 0.00 in/hr0.0 mm/hr 0.00 in0.0 mm
08:49 AM 60.4°F15.8°C 59.3°F15.2°C 96% 1.0 mph WSW1.6 kmh WSW 3.0 mph4.8 kmh 30.12 in1020.0 mb 0.00 in0.0 mm 0.00 in/hr0.0 mm/hr 0.00 in0.0 mm
08:48 AM 60.3°F15.7°C 59.2°F15.1°C 96% 1.0 mph WSW1.6 kmh WSW 3.0 mph4.8 kmh 30.12 in1020.0 mb 0.00 in0.0 mm 0.00 in/hr0.0 mm/hr 0.00 in0.0 mm
08:47 AM 60.4°F15.8°C 59.5°F15.3°C 97% 1.0 mph WSW1.6 kmh WSW 3.0 mph4.8 kmh 30.12 in1020.0 mb 0.00 in0.0 mm 0.00 in/hr0.0 mm/hr 0.00 in0.0 mm
08:46 AM 60.3°F15.7°C 59.4°F15.2°C 97% 1.0 mph WSW1.6 kmh WSW 3.0 mph4.8 kmh 30.12 in1020.0 mb 0.00 in0.0 mm 0.00 in/hr0.0 mm/hr 0.00 in0.0 mm
08:45 AM 60.2°F15.7°C 59.3°F15.2°C 97% 1.0 mph WSW1.6 kmh WSW 3.0 mph4.8 kmh 30.12 in1020.0 mb 0.00 in0.0 mm 0.00 in/hr0.0 mm/hr 0.00 in0.0 mm
08:44 AM 60.1°F15.6°C 59.0°F15.0°C 96% 1.0 mph W1.6 kmh W 3.0 mph4.8 kmh 30.12 in1020.0 mb 0.00 in0.0 mm 0.00 in/hr0.0 mm/hr 0.00 in0.0 mm
08:43 AM 60.1°F15.6°C 59.0°F15.0°C 96% 1.0 mph W1.6 kmh W 3.0 mph4.8 kmh 30.12 in1020.0 mb 0.00 in0.0 mm 0.00 in/hr0.0 mm/hr 0.00 in0.0 mm
08:42 AM 60.1°F15.6°C 59.2°F15.1°C 97% 1.0 mph W1.6 kmh W 3.0 mph4.8 kmh 30.12 in1020.0 mb 0.00 in0.0 mm 0.00 in/hr0.0 mm/hr 0.00 in0.0 mm
08:41 AM 60.0°F15.6°C 58.9°F14.9°C 96% 1.0 mph W1.6 kmh W 3.0 mph4.8 kmh 30.12 in1020.0 mb 0.00 in0.0 mm 0.00 in/hr0.0 mm/hr 0.00 in0.0 mm
08:40 AM 59.9°F15.5°C 58.8°F14.9°C 96% 1.0 mph W1.6 kmh W 3.0 mph4.8 kmh 30.12 in1020.0 mb 0.00 in0.0 mm 0.00 in/hr0.0 mm/hr 0.00 in0.0 mm
08:39 AM 59.9°F15.5°C 58.8°F14.9°C 96% 1.0 mph W1.6 kmh W 3.0 mph4.8 kmh 30.12 in1020.0 mb 0.00 in0.0 mm 0.00 in/hr0.0 mm/hr 0.00 in0.0 mm
08:38 AM 59.9°F15.5°C 58.8°F14.9°C 96% 1.0 mph W1.6 kmh W 2.0 mph3.2 kmh 30.13 in1020.3 mb 0.00 in0.0 mm 0.00 in/hr0.0 mm/hr 0.00 in0.0 mm
08:37 AM 59.9°F15.5°C 58.8°F14.9°C 96% 1.0 mph WSW1.6 kmh WSW 4.0 mph6.4 kmh 30.13 in1020.3 mb 0.00 in0.0 mm 0.00 in/hr0.0 mm/hr 0.00 in0.0 mm
08:36 AM 59.9°F15.5°C 58.8°F14.9°C 96% 1.0 mph WSW1.6 kmh WSW 4.0 mph6.4 kmh 30.12 in1020.0 mb 0.00 in0.0 mm 0.00 in/hr0.0 mm/hr 0.00 in0.0 mm
08:35 AM 59.9°F15.5°C 58.8°F14.9°C 96% 1.0 mph SW1.6 kmh SW 4.0 mph6.4 kmh 30.13 in1020.3 mb 0.00 in0.0 mm 0.00 in/hr0.0 mm/hr 0.00 in0.0 mm
08:34 AM 59.9°F15.5°C 58.8°F14.9°C 96% 1.0 mph SW1.6 kmh SW 4.0 mph6.4 kmh 30.12 in1020.0 mb 0.00 in0.0 mm 0.00 in/hr0.0 mm/hr 0.00 in0.0 mm
08:33 AM 59.9°F15.5°C 58.8°F14.9°C 96% 1.0 mph SW1.6 kmh SW 4.0 mph6.4 kmh 30.13 in1020.3 mb 0.00 in0.0 mm 0.00 in/hr0.0 mm/hr 0.00 in0.0 mm
08:32 AM 59.9°F15.5°C 58.8°F14.9°C 96% Calm Calm 4.0 mph6.4 kmh 30.13 in1020.3 mb 0.00 in0.0 mm 0.00 in/hr0.0 mm/hr 0.00 in0.0 mm
08:31 AM 59.9°F15.5°C 58.5°F14.7°C 95% Calm Calm 4.0 mph6.4 kmh 30.13 in1020.3 mb 0.00 in0.0 mm 0.00 in/hr0.0 mm/hr 0.00 in0.0 mm
08:30 AM 59.9°F15.5°C 58.5°F14.7°C 95% Calm Calm 4.0 mph6.4 kmh 30.13 in1020.3 mb 0.00 in0.0 mm 0.00 in/hr0.0 mm/hr 0.00 in0.0 mm
08:29 AM 60.0°F15.6°C 58.6°F14.8°C 95% Calm Calm 4.0 mph6.4 kmh 30.13 in1020.3 mb 0.00 in0.0 mm 0.00 in/hr0.0 mm/hr 0.00 in0.0 mm
08:28 AM 60.1°F15.6°C 59.0°F15.0°C 96% Calm Calm 4.0 mph6.4 kmh 30.12 in1020.0 mb 0.00 in0.0 mm 0.00 in/hr0.0 mm/hr 0.00 in0.0 mm
08:27 AM 60.2°F15.7°C 59.3°F15.2°C 97% Calm Calm 4.0 mph6.4 kmh 30.12 in1020.0 mb 0.00 in0.0 mm 0.00 in/hr0.0 mm/hr 0.00 in0.0 mm
08:26 AM 60.1°F15.6°C 59.2°F15.1°C 97% Calm Calm 3.0 mph4.8 kmh 30.12 in1020.0 mb 0.00 in0.0 mm 0.00 in/hr0.0 mm/hr 0.00 in0.0 mm
08:25 AM 60.1°F15.6°C 59.2°F15.1°C 97% Calm Calm -- 30.12 in1020.0 mb 0.00 in0.0 mm 0.00 in/hr0.0 mm/hr 0.00 in0.0 mm
08:24 AM 60.0°F15.6°C 59.1°F15.1°C 97% Calm Calm -- 30.12 in1020.0 mb 0.00 in0.0 mm 0.00 in/hr0.0 mm/hr 0.00 in0.0 mm
08:23 AM 59.9°F15.5°C 59.0°F15.0°C 97% Calm Calm -- 30.12 in1020.0 mb 0.00 in0.0 mm 0.00 in/hr0.0 mm/hr 0.00 in0.0 mm
08:22 AM 59.7°F15.4°C 58.8°F14.9°C 97% Calm Calm 2.0 mph3.2 kmh 30.12 in1020.0 mb 0.00 in0.0 mm 0.00 in/hr0.0 mm/hr 0.00 in0.0 mm
08:21 AM 59.6°F15.3°C 58.7°F14.8°C 97% Calm Calm 2.0 mph3.2 kmh 30.12 in1020.0 mb 0.00 in0.0 mm 0.00 in/hr0.0 mm/hr 0.00 in0.0 mm
08:20 AM 59.6°F15.3°C 59.6°F15.3°C 100% Calm Calm 2.0 mph3.2 kmh 30.12 in1020.0 mb 0.00 in0.0 mm 0.00 in/hr0.0 mm/hr 0.00 in0.0 mm
08:19 AM 59.5°F15.3°C 58.6°F14.8°C 97% Calm Calm 2.0 mph3.2 kmh 30.12 in1020.0 mb 0.00 in0.0 mm 0.00 in/hr0.0 mm/hr 0.00 in0.0 mm
08:18 AM 59.3°F15.2°C 58.4°F14.7°C 97% Calm Calm 2.0 mph3.2 kmh 30.11 in1019.6 mb 0.00 in0.0 mm 0.00 in/hr0.0 mm/hr 0.00 in0.0 mm
08:17 AM 59.3°F15.2°C 58.4°F14.7°C 97% Calm Calm 2.0 mph3.2 kmh 30.12 in1020.0 mb 0.00 in0.0 mm 0.00 in/hr0.0 mm/hr 0.00 in0.0 mm
08:16 AM 59.3°F15.2°C 58.4°F14.7°C 97% Calm Calm 2.0 mph3.2 kmh 30.11 in1019.6 mb 0.00 in0.0 mm 0.00 in/hr0.0 mm/hr 0.00 in0.0 mm
08:15 AM 59.2°F15.1°C 58.3°F14.6°C 97% Calm Calm 2.0 mph3.2 kmh 30.11 in1019.6 mb 0.00 in0.0 mm 0.00 in/hr0.0 mm/hr 0.00 in0.0 mm
08:14 AM 59.2°F15.1°C 58.3°F14.6°C 97% Calm Calm 2.0 mph3.2 kmh 30.11 in1019.6 mb 0.00 in0.0 mm 0.00 in/hr0.0 mm/hr 0.00 in0.0 mm
08:13 AM 59.2°F15.1°C 58.3°F14.6°C 97% Calm Calm 2.0 mph3.2 kmh 30.11 in1019.6 mb 0.00 in0.0 mm 0.00 in/hr0.0 mm/hr 0.00 in0.0 mm
08:12 AM 59.2°F15.1°C 58.3°F14.6°C 97% Calm Calm 1.0 mph1.6 kmh 30.11 in1019.6 mb 0.00 in0.0 mm 0.00 in/hr0.0 mm/hr 0.00 in0.0 mm
08:11 AM 59.1°F15.1°C 58.2°F14.6°C 97% Calm Calm -- 30.11 in1019.6 mb 0.00 in0.0 mm 0.00 in/hr0.0 mm/hr 0.00 in0.0 mm
08:10 AM 59.1°F15.1°C 58.2°F14.6°C 97% Calm Calm -- 30.11 in1019.6 mb 0.00 in0.0 mm 0.00 in/hr0.0 mm/hr 0.00 in0.0 mm
08:09 AM 59.0°F15.0°C 58.2°F14.6°C 97% Calm Calm -- 30.11 in1019.6 mb 0.00 in0.0 mm 0.00 in/hr0.0 mm/hr 0.00 in0.0 mm
08:08 AM 59.0°F15.0°C 58.2°F14.6°C 97% Calm Calm -- 30.11 in1019.6 mb 0.00 in0.0 mm 0.00 in/hr0.0 mm/hr 0.00 in0.0 mm
08:07 AM 59.0°F15.0°C 58.2°F14.6°C 97% Calm Calm 1.0 mph1.6 kmh 30.11 in1019.6 mb 0.00 in0.0 mm 0.00 in/hr0.0 mm/hr 0.00 in0.0 mm
08:06 AM 59.0°F15.0°C 58.2°F14.6°C 97% Calm Calm 1.0 mph1.6 kmh 30.11 in1019.6 mb 0.00 in0.0 mm 0.00 in/hr0.0 mm/hr 0.00 in0.0 mm
08:05 AM 59.0°F15.0°C 58.2°F14.6°C 97% Calm Calm 1.0 mph1.6 kmh 30.11 in1019.6 mb 0.00 in0.0 mm 0.00 in/hr0.0 mm/hr 0.00 in0.0 mm
08:04 AM 59.0°F15.0°C 59.0°F15.0°C 100% Calm Calm 1.0 mph1.6 kmh 30.11 in1019.6 mb 0.00 in0.0 mm 0.00 in/hr0.0 mm/hr 0.00 in0.0 mm
08:03 AM 59.0°F15.0°C 59.0°F15.0°C 100% Calm Calm 1.0 mph1.6 kmh 30.11 in1019.6 mb 0.00 in0.0 mm 0.00 in/hr0.0 mm/hr 0.00 in0.0 mm
08:02 AM 59.0°F15.0°C 59.0°F15.0°C 100% Calm Calm 1.0 mph1.6 kmh 30.11 in1019.6 mb 0.00 in0.0 mm 0.00 in/hr0.0 mm/hr 0.00 in0.0 mm
08:01 AM 59.0°F15.0°C 59.0°F15.0°C 100% Calm Calm 1.0 mph1.6 kmh 30.11 in1019.6 mb 0.00 in0.0 mm 0.00 in/hr0.0 mm/hr 0.00 in0.0 mm
08:00 AM 59.0°F15.0°C 59.0°F15.0°C 100% Calm Calm 1.0 mph1.6 kmh 30.11 in1019.6 mb 0.00 in0.0 mm 0.00 in/hr0.0 mm/hr 0.00 in0.0 mm
07:59 AM 59.0°F15.0°C 58.2°F14.6°C 97% Calm Calm 1.0 mph1.6 kmh 30.11 in1019.6 mb 0.00 in0.0 mm 0.00 in/hr0.0 mm/hr 0.00 in0.0 mm
07:58 AM 59.0°F15.0°C 59.0°F15.0°C 100% Calm Calm 1.0 mph1.6 kmh 30.11 in1019.6 mb 0.00 in0.0 mm 0.00 in/hr0.0 mm/hr 0.00 in0.0 mm
07:57 AM 59.0°F15.0°C 59.0°F15.0°C 100% Calm Calm 1.0 mph1.6 kmh 30.10 in1019.3 mb 0.00 in0.0 mm 0.00 in/hr0.0 mm/hr 0.00 in0.0 mm
07:56 AM 59.0°F15.0°C 59.0°F15.0°C 100% Calm Calm 1.0 mph1.6 kmh 30.10 in1019.3 mb 0.00 in0.0 mm 0.00 in/hr0.0 mm/hr 0.00 in0.0 mm
07:55 AM 59.0°F15.0°C 59.0°F15.0°C 100% Calm Calm 1.0 mph1.6 kmh 30.10 in1019.3 mb 0.00 in0.0 mm 0.00 in/hr0.0 mm/hr 0.00 in0.0 mm
07:54 AM 58.9°F14.9°C 58.9°F14.9°C 100% 1.0 mph NE1.6 kmh NE 1.0 mph1.6 kmh 30.10 in1019.3 mb 0.00 in0.0 mm 0.00 in/hr0.0 mm/hr 0.00 in0.0 mm
07:53 AM 58.9°F14.9°C 58.9°F14.9°C 100% 1.0 mph NE1.6 kmh NE 1.0 mph1.6 kmh 30.10 in1019.3 mb 0.00 in0.0 mm 0.00 in/hr0.0 mm/hr 0.00 in0.0 mm
07:52 AM 58.9°F14.9°C 58.9°F14.9°C 100% 1.0 mph NE1.6 kmh NE 1.0 mph1.6 kmh 30.10 in1019.3 mb 0.00 in0.0 mm 0.00 in/hr0.0 mm/hr 0.00 in0.0 mm
07:51 AM 58.8°F14.9°C 58.8°F14.9°C 100% 1.0 mph NE1.6 kmh NE 1.0 mph1.6 kmh 30.10 in1019.3 mb 0.00 in0.0 mm 0.00 in/hr0.0 mm/hr 0.00 in0.0 mm
07:50 AM 58.8°F14.9°C 58.8°F14.9°C 100% 1.0 mph NE1.6 kmh NE 2.0 mph3.2 kmh 30.10 in1019.3 mb 0.00 in0.0 mm 0.00 in/hr0.0 mm/hr 0.00 in0.0 mm
07:49 AM 58.8°F14.9°C 58.8°F14.9°C 100% 1.0 mph NE1.6 kmh NE 2.0 mph3.2 kmh 30.09 in1019.0 mb 0.00 in0.0 mm 0.00 in/hr0.0 mm/hr 0.00 in0.0 mm
07:48 AM 58.8°F14.9°C 58.8°F14.9°C 100% 1.0 mph NE1.6 kmh NE 2.0 mph3.2 kmh 30.09 in1019.0 mb 0.00 in0.0 mm 0.00 in/hr0.0 mm/hr 0.00 in0.0 mm
07:47 AM 58.7°F14.8°C 58.7°F14.8°C 100% 1.0 mph NE1.6 kmh NE 2.0 mph3.2 kmh 30.09 in1019.0 mb 0.00 in0.0 mm 0.00 in/hr0.0 mm/hr 0.00 in0.0 mm
07:46 AM 58.7°F14.8°C 58.7°F14.8°C 100% 1.0 mph NE1.6 kmh NE 2.0 mph3.2 kmh 30.09 in1019.0 mb 0.00 in0.0 mm 0.00 in/hr0.0 mm/hr 0.00 in0.0 mm
07:45 AM 58.7°F14.8°C 58.7°F14.8°C 100% Calm Calm 2.0 mph3.2 kmh 30.09 in1019.0 mb 0.00 in0.0 mm 0.00 in/hr0.0 mm/hr 0.00 in0.0 mm
07:44 AM 58.6°F14.8°C 58.6°F14.8°C 100% Calm Calm 2.0 mph3.2 kmh 30.09 in1019.0 mb 0.00 in0.0 mm 0.00 in/hr0.0 mm/hr 0.00 in0.0 mm
07:43 AM 58.7°F14.8°C 58.7°F14.8°C 100% Calm Calm 2.0 mph3.2 kmh 30.09 in1019.0 mb 0.00 in0.0 mm 0.00 in/hr0.0 mm/hr 0.00 in0.0 mm
07:42 AM 58.7°F14.8°C 58.7°F14.8°C 100% Calm Calm 2.0 mph3.2 kmh 30.09 in1019.0 mb 0.00 in0.0 mm 0.00 in/hr0.0 mm/hr 0.00 in0.0 mm
07:41 AM 58.7°F14.8°C 58.7°F14.8°C 100% Calm Calm 2.0 mph3.2 kmh 30.09 in1019.0 mb 0.00 in0.0 mm 0.00 in/hr0.0 mm/hr 0.00 in0.0 mm
07:40 AM 58.8°F14.9°C 58.8°F14.9°C 100% Calm Calm 2.0 mph3.2 kmh 30.09 in1019.0 mb 0.00 in0.0 mm 0.00 in/hr0.0 mm/hr 0.00 in0.0 mm
07:39 AM 58.6°F14.8°C 58.6°F14.8°C 100% 1.0 mph NE1.6 kmh NE 4.0 mph6.4 kmh 30.08 in1018.6 mb 0.00 in0.0 mm 0.00 in/hr0.0 mm/hr 0.00 in0.0 mm
07:38 AM 58.9°F14.9°C 58.6°F14.8°C 99% Calm Calm 1.0 mph1.6 kmh 30.07 in1018.3 mb 0.00 in0.0 mm 0.00 in/hr0.0 mm/hr 0.00 in0.0 mm
07:37 AM 59.2°F15.1°C 58.9°F14.9°C 99% 1.0 mph NNE1.6 kmh NNE 3.0 mph4.8 kmh 30.06 in1017.9 mb 0.00 in0.0 mm 0.00 in/hr0.0 mm/hr 0.00 in0.0 mm
07:36 AM 59.1°F15.1°C 58.8°F14.9°C 99% Calm Calm 1.0 mph1.6 kmh 30.06 in1017.9 mb 0.00 in0.0 mm 0.00 in/hr0.0 mm/hr 0.00 in0.0 mm
07:35 AM 59.0°F15.0°C 59.0°F15.0°C 100% Calm Calm 1.0 mph1.6 kmh 30.05 in1017.6 mb 0.00 in0.0 mm 0.00 in/hr0.0 mm/hr 0.00 in0.0 mm
07:34 AM 58.9°F14.9°C 58.9°F14.9°C 100% Calm Calm 1.0 mph1.6 kmh 30.09 in1019.0 mb 0.00 in0.0 mm 0.00 in/hr0.0 mm/hr 0.00 in0.0 mm
07:33 AM 59.6°F15.3°C 59.6°F15.3°C 100% Calm Calm -- 30.05 in1017.6 mb 0.00 in0.0 mm 0.00 in/hr0.0 mm/hr 0.00 in0.0 mm
07:32 AM 61.1°F16.2°C 61.1°F16.2°C 100% Calm Calm -- 30.05 in1017.6 mb 0.00 in0.0 mm 0.00 in/hr0.0 mm/hr 0.00 in0.0 mm
07:31 AM 61.0°F16.1°C 61.0°F16.1°C 100% Calm Calm -- 30.05 in1017.6 mb 0.00 in0.0 mm 0.00 in/hr0.0 mm/hr 0.00 in0.0 mm
07:26 AM 58.8°F14.9°C 58.8°F14.9°C 100% Calm Calm 1.0 mph1.6 kmh 30.08 in1018.6 mb 0.00 in0.0 mm 0.00 in/hr0.0 mm/hr 0.00 in0.0 mm
07:25 AM 58.8°F14.9°C 58.8°F14.9°C 100% Calm Calm 1.0 mph1.6 kmh 30.08 in1018.6 mb 0.00 in0.0 mm 0.00 in/hr0.0 mm/hr 0.00 in0.0 mm
12:37 AM 60.9°F16.1°C 60.9°F16.1°C 100% Calm Calm -- 30.05 in1017.6 mb 0.00 in0.0 mm 0.00 in/hr0.0 mm/hr 0.00 in0.0 mm
12:36 AM 60.9°F16.1°C 60.9°F16.1°C 100% Calm Calm -- 30.05 in1017.6 mb 0.00 in0.0 mm 0.00 in/hr0.0 mm/hr 0.00 in0.0 mm
12:35 AM 60.8°F16.0°C 60.8°F16.0°C 100% Calm Calm -- 30.05 in1017.6 mb 0.00 in0.0 mm 0.00 in/hr0.0 mm/hr 0.00 in0.0 mm
12:34 AM 60.8°F16.0°C 60.8°F16.0°C 100% Calm Calm -- 30.05 in1017.6 mb 0.00 in0.0 mm 0.00 in/hr0.0 mm/hr 0.00 in0.0 mm
12:33 AM 60.8°F16.0°C 60.8°F16.0°C 100% Calm Calm -- 30.05 in1017.6 mb 0.00 in0.0 mm 0.00 in/hr0.0 mm/hr 0.00 in0.0 mm
12:32 AM 60.7°F15.9°C 60.7°F15.9°C 100% Calm Calm -- 30.06 in1017.9 mb 0.00 in0.0 mm 0.00 in/hr0.0 mm/hr 0.00 in0.0 mm
12:31 AM 60.7°F15.9°C 60.7°F15.9°C 100% Calm Calm -- 30.06 in1017.9 mb 0.00 in0.0 mm 0.00 in/hr0.0 mm/hr 0.00 in0.0 mm
12:30 AM 60.7°F15.9°C 60.7°F15.9°C 100% Calm Calm -- 30.06 in1017.9 mb 0.00 in0.0 mm 0.00 in/hr0.0 mm/hr 0.00 in0.0 mm
12:29 AM 60.8°F16.0°C 60.5°F15.8°C 99% Calm Calm -- 30.06 in1017.9 mb 0.00 in0.0 mm 0.00 in/hr0.0 mm/hr 0.00 in0.0 mm
12:28 AM 61.0°F16.1°C 60.7°F15.9°C 99% Calm Calm 1.0 mph1.6 kmh 30.06 in1017.9 mb 0.00 in0.0 mm 0.00 in/hr0.0 mm/hr 0.00 in0.0 mm
12:27 AM 61.3°F16.3°C 61.0°F16.1°C 99% Calm Calm 1.0 mph1.6 kmh 30.06 in1017.9 mb 0.00 in0.0 mm 0.00 in/hr0.0 mm/hr 0.00 in0.0 mm
12:26 AM 61.5°F16.4°C 61.2°F16.2°C 99% Calm Calm 1.0 mph1.6 kmh 30.06 in1017.9 mb 0.00 in0.0 mm 0.00 in/hr0.0 mm/hr 0.00 in0.0 mm
12:25 AM 61.5°F16.4°C 61.2°F16.2°C 99% Calm Calm 1.0 mph1.6 kmh 30.06 in1017.9 mb 0.00 in0.0 mm 0.00 in/hr0.0 mm/hr 0.00 in0.0 mm
12:24 AM 61.4°F16.3°C 61.1°F16.2°C 99% Calm Calm 1.0 mph1.6 kmh 30.06 in1017.9 mb 0.00 in0.0 mm 0.00 in/hr0.0 mm/hr 0.00 in0.0 mm
12:23 AM 61.4°F16.3°C 61.1°F16.2°C 99% Calm Calm 1.0 mph1.6 kmh 30.06 in1017.9 mb 0.00 in0.0 mm 0.00 in/hr0.0 mm/hr 0.00 in0.0 mm
12:22 AM 61.2°F16.2°C 60.9°F16.1°C 99% Calm Calm 1.0 mph1.6 kmh 30.06 in1017.9 mb 0.00 in0.0 mm 0.00 in/hr0.0 mm/hr 0.00 in0.0 mm
12:21 AM 61.0°F16.1°C 60.7°F15.9°C 99% Calm Calm 1.0 mph1.6 kmh 30.06 in1017.9 mb 0.00 in0.0 mm 0.00 in/hr0.0 mm/hr 0.00 in0.0 mm
12:20 AM 60.8°F16.0°C 60.5°F15.8°C 99% Calm Calm 1.0 mph1.6 kmh 30.06 in1017.9 mb 0.00 in0.0 mm 0.00 in/hr0.0 mm/hr 0.00 in0.0 mm
12:19 AM 60.6°F15.9°C 60.6°F15.9°C 100% Calm Calm 1.0 mph1.6 kmh 30.06 in1017.9 mb 0.00 in0.0 mm 0.00 in/hr0.0 mm/hr 0.00 in0.0 mm
12:18 AM 60.4°F15.8°C 60.4°F15.8°C 100% Calm Calm -- 30.06 in1017.9 mb 0.00 in0.0 mm 0.00 in/hr0.0 mm/hr 0.00 in0.0 mm
12:17 AM 60.3°F15.7°C 60.3°F15.7°C 100% Calm Calm -- 30.06 in1017.9 mb 0.00 in0.0 mm 0.00 in/hr0.0 mm/hr 0.00 in0.0 mm
12:16 AM 60.3°F15.7°C 60.3°F15.7°C 100% Calm Calm -- 30.06 in1017.9 mb 0.00 in0.0 mm 0.00 in/hr0.0 mm/hr 0.00 in0.0 mm
12:15 AM 60.2°F15.7°C 60.2°F15.7°C 100% Calm Calm -- 30.06 in1017.9 mb 0.00 in0.0 mm 0.00 in/hr0.0 mm/hr 0.00 in0.0 mm
12:14 AM 60.2°F15.7°C 60.2°F15.7°C 100% Calm Calm -- 30.06 in1017.9 mb 0.00 in0.0 mm 0.00 in/hr0.0 mm/hr 0.00 in0.0 mm
12:13 AM 60.2°F15.7°C 60.2°F15.7°C 100% Calm Calm -- 30.06 in1017.9 mb 0.00 in0.0 mm 0.00 in/hr0.0 mm/hr 0.00 in0.0 mm
12:12 AM 60.2°F15.7°C 60.2°F15.7°C 100% Calm Calm -- 30.06 in1017.9 mb 0.00 in0.0 mm 0.00 in/hr0.0 mm/hr 0.00 in0.0 mm
12:11 AM 60.1°F15.6°C 60.1°F15.6°C 100% Calm Calm -- 30.06 in1017.9 mb 0.00 in0.0 mm 0.00 in/hr0.0 mm/hr 0.00 in0.0 mm
12:10 AM 60.1°F15.6°C 60.1°F15.6°C 100% Calm Calm -- 30.06 in1017.9 mb 0.00 in0.0 mm 0.00 in/hr0.0 mm/hr 0.00 in0.0 mm
12:09 AM 60.1°F15.6°C 60.1°F15.6°C 100% Calm Calm -- 30.06 in1017.9 mb 0.00 in0.0 mm 0.00 in/hr0.0 mm/hr 0.00 in0.0 mm
12:08 AM 60.0°F15.6°C 60.0°F15.6°C 100% Calm Calm -- 30.06 in1017.9 mb 0.00 in0.0 mm 0.00 in/hr0.0 mm/hr 0.00 in0.0 mm
12:07 AM 59.9°F15.5°C 59.9°F15.5°C 100% Calm Calm -- 30.06 in1017.9 mb 0.00 in0.0 mm 0.00 in/hr0.0 mm/hr 0.00 in0.0 mm
12:06 AM 59.8°F15.4°C 59.8°F15.4°C 100% Calm Calm -- 30.06 in1017.9 mb 0.00 in0.0 mm 0.00 in/hr0.0 mm/hr 0.00 in0.0 mm
12:05 AM 59.8°F15.4°C 59.8°F15.4°C 100% Calm Calm -- 30.06 in1017.9 mb 0.00 in0.0 mm 0.00 in/hr0.0 mm/hr 0.00 in0.0 mm
12:04 AM 59.8°F15.4°C 59.8°F15.4°C 100% Calm Calm -- 30.06 in1017.9 mb 0.00 in0.0 mm 0.00 in/hr0.0 mm/hr 0.00 in0.0 mm
12:03 AM 59.8°F15.4°C 59.8°F15.4°C 100% Calm Calm -- 30.05 in1017.6 mb 0.00 in0.0 mm 0.00 in/hr0.0 mm/hr 0.00 in0.0 mm
12:02 AM 59.8°F15.4°C 59.8°F15.4°C 100% Calm Calm -- 30.05 in1017.6 mb 0.00 in0.0 mm 0.00 in/hr0.0 mm/hr 0.00 in0.0 mm
12:01 AM 59.8°F15.4°C 59.8°F15.4°C 100% Calm Calm -- 30.05 in1017.6 mb 0.00 in0.0 mm 0.00 in/hr0.0 mm/hr 0.00 in0.0 mm
12:00 AM 59.8°F15.4°C 59.8°F15.4°C 100% Calm Calm -- 30.05 in1017.6 mb 0.00 in0.0 mm 0.00 in/hr0.0 mm/hr 0.00 in0.0 mm